SV829 / HZ-AR12 7700 Squawk Report (13th of September, 2019)

Aircraft B789 Reg No. HZ-AR12 Age 2 years old
Model 787 Jet engines 2 First flight 04-04-17
Registered 22-06-17 Rollout N/A Delivered 22-06-17
Construction No. 40046 Line No. 0551 Series 9
ADSHEX 7103D6 Airline name Saudia Owner N/A
Airfield based Jeddah~ ~HZ First tracked 2017-07-13 12:03:00

Flight history for HZ-AR12

Route Flight No Date Playback
Barajas (MAD) - King Abdulaziz Intl (JED) - King Khaled Intl (RUH) SV226 2019-10-18 20:48:00
King Khaled Intl (RUH) - King Abdulaziz Intl (JED) - Barajas (MAD) SV227 2019-10-18 13:17:00
Barajas (MAD) - King Abdulaziz Intl (JED) - King Khaled Intl (RUH) SV226 2019-10-18 02:15:00
King Khaled Intl (RUH) - King Abdulaziz Intl (JED) - Barajas (MAD) SV227 2019-10-17 13:05:00
King Abdulaziz Intl (JED) - King Khaled Intl (RUH) SV1034 2019-10-16 12:30:00
King Khaled Intl (RUH) - King Abdulaziz Intl (JED) SV1029 2019-10-16 09:01:00
Mohammed V International (CMN) - King Khaled Intl (RUH) SV374 2019-10-16 08:10:00
King Khaled Intl (RUH) - Mohammed V International (CMN) SV375 2019-10-15 20:57:00
King Abdulaziz Intl (JED) - King Khaled Intl (RUH) SV1030 2019-10-15 12:19:00
King Khaled Intl (RUH) - King Abdulaziz Intl (JED) SV1023 2019-10-15 05:59:00
Mohammed V International (CMN) - King Khaled Intl (RUH) SV374 2019-10-15 05:10:00
King Khaled Intl (RUH) - Mohammed V International (CMN) SV375 2019-10-14 20:54:00
King Abdulaziz Intl (JED) - King Khaled Intl (RUH) SV1030 2019-10-14 12:14:00
King Khaled Intl (RUH) - King Abdulaziz Intl (JED) SV1035 2019-10-13 12:17:00
Dubai International (DXB) - King Khaled Intl (RUH) SV563 2019-10-13 11:27:00
King Khaled Intl (RUH) - Dubai International (DXB) SV562 2019-10-13 06:48:00
Baiyun Intl (CAN) - King Khaled Intl (RUH) SV885 2019-10-12 16:17:00
King Khaled Intl (RUH) - Baiyun Intl (CAN) SV884 2019-10-12 07:36:00
King Abdulaziz Intl (JED) - King Khaled Intl (RUH) SV1056 2019-10-11 01:31:00
Manchester (MAN) - King Abdulaziz Intl (JED) SV124 2019-10-11 00:56:00
Time Lat Lon Altitude Heading Speed Vertical Rate
2019-09-13 17:52:59 GMT 25.011820 43.482903 35,975 264 503 -64
2019-09-13 17:52:41 GMT 25.016754 43.527729 36,000 264 504 -64
2019-09-13 17:52:30 GMT 25.019760 43.554993 36,000 264 504 -64
2019-09-13 17:52:19 GMT 25.022758 43.582813 36,000 264 504 -64
2019-09-13 17:52:03 GMT 25.027359 43.624878 35,975 264 504 -64
2019-09-13 17:51:58 GMT 25.028765 43.637852 35,975 264 504 -64
2019-09-13 17:51:47 GMT 25.031891 43.666180 36,000 264 504 0
2019-09-13 17:51:38 GMT 25.034304 43.688377 35,975 264 504 0
2019-09-13 17:51:27 GMT 25.037376 43.716930 35,975 264 504 -64
2019-09-13 17:51:17 GMT 25.040085 43.742218 36,000 264 505 -64
2019-09-13 17:51:06 GMT 25.043150 43.770569 36,000 264 505 -64
2019-09-13 17:50:54 GMT 25.046314 43.800159 36,000 264 505 0
2019-09-13 17:50:45 GMT 25.048876 43.824154 36,000 264 505 0
2019-09-13 17:50:34 GMT 25.051758 43.850964 36,000 264 505 -64
2019-09-13 17:50:23 GMT 25.054741 43.878822 36,000 264 505 -64
2019-09-13 17:50:14 GMT 25.057440 43.903854 35,975 264 505 0
2019-09-13 17:50:03 GMT 25.060318 43.930664 35,975 264 505 -64
2019-09-13 17:49:52 GMT 25.063213 43.958008 36,000 264 505 -64
2019-09-13 17:49:42 GMT 25.066051 43.985062 36,000 264 505 0
2019-09-13 17:49:31 GMT 25.068846 44.011646 35,975 264 505 0
2019-09-13 17:49:21 GMT 25.071762 44.038952 36,000 264 504 -64
2019-09-13 17:49:10 GMT 25.074554 44.065502 36,000 264 504 -64
2019-09-13 17:49:00 GMT 25.077272 44.091244 35,975 264 504 64
2019-09-13 17:48:49 GMT 25.080204 44.118813 35,975 264 504 64
2019-09-13 17:48:38 GMT 25.083138 44.146900 35,975 264 504 0
2019-09-13 17:48:29 GMT 25.085724 44.171600 35,975 264 504 -64
2019-09-13 17:48:18 GMT 25.088585 44.198933 35,975 264 504 -64
2019-09-13 17:48:07 GMT 25.091423 44.225983 36,000 264 504 -64
2019-09-13 17:47:57 GMT 25.094263 44.253551 35,975 264 504 64
2019-09-13 17:47:46 GMT 25.097149 44.281120 35,975 264 504 64
2019-09-13 17:47:36 GMT 25.099777 44.306385 35,975 264 504 0
2019-09-13 17:47:24 GMT 25.102781 44.335743 35,975 264 505 0
2019-09-13 17:47:15 GMT 25.105270 44.359997 35,975 264 505 -64
2019-09-13 17:47:04 GMT 25.108154 44.387665 36,000 264 506 -192
2019-09-13 17:46:54 GMT 25.110947 44.413807 36,000 265 507 64
2019-09-13 17:46:43 GMT 25.113190 44.442646 35,950 267 508 704
2019-09-13 17:46:32 GMT 25.114288 44.469044 35,750 269 509 1536
2019-09-13 17:46:22 GMT 25.114426 44.496510 35,450 272 509 1920
2019-09-13 17:46:11 GMT 25.113583 44.523754 35,125 274 509 1920
2019-09-13 17:46:02 GMT 25.111771 44.548901 34,850 276 510 1792
2019-09-13 17:45:49 GMT 25.109068 44.580757 34,500 276 510 1856
2019-09-13 17:45:40 GMT 25.107101 44.604290 34,225 276 510 2368
2019-09-13 17:45:30 GMT 25.104736 44.632011 33,825 276 512 2432
2019-09-13 17:45:20 GMT 25.102503 44.657505 33,450 276 514 2240
2019-09-13 17:45:09 GMT 25.099850 44.686214 33,075 276 515 2304
2019-09-13 17:44:59 GMT 25.097382 44.712906 32,725 276 517 2176
2019-09-13 17:44:48 GMT 25.094879 44.739941 32,400 276 517 1536
2019-09-13 17:44:37 GMT 25.092215 44.768974 32,150 276 515 1536
2019-09-13 17:44:27 GMT 25.089844 44.795330 31,900 276 513 1408
2019-09-13 17:44:17 GMT 25.087372 44.822895 31,700 276 511 1408
2019-09-13 17:44:06 GMT 25.084946 44.849804 31,450 276 509 1472
2019-09-13 17:43:55 GMT 25.082520 44.877064 31,200 276 507 1536
2019-09-13 17:43:45 GMT 25.080048 44.904785 30,950 276 504 1536
2019-09-13 17:43:34 GMT 25.077597 44.932114 30,700 276 503 1600
2019-09-13 17:43:23 GMT 25.075037 44.960613 30,425 276 501 1600
2019-09-13 17:43:13 GMT 25.072708 44.986473 30,175 276 499 1600
2019-09-13 17:43:02 GMT 25.070160 45.014545 29,900 276 497 1536
2019-09-13 17:42:51 GMT 25.067780 45.040741 29,650 276 496 1600
2019-09-13 17:42:41 GMT 25.065308 45.067394 29,375 276 495 1600
2019-09-13 17:42:30 GMT 25.062981 45.092659 29,150 276 493 1216
2019-09-13 17:42:20 GMT 25.060419 45.119553 28,950 276 489 1344
2019-09-13 17:42:09 GMT 25.058029 45.145061 28,725 277 487 1536
2019-09-13 17:41:59 GMT 25.055485 45.171478 28,450 277 486 1664
2019-09-13 17:41:48 GMT 25.053110 45.196564 28,175 276 485 1600
2019-09-13 17:41:38 GMT 25.050659 45.222881 27,925 276 484 1728
2019-09-13 17:41:28 GMT 25.048462 45.247906 27,650 276 483 1728
2019-09-13 17:41:17 GMT 25.046175 45.273571 27,375 276 482 1536
2019-09-13 17:41:06 GMT 25.043793 45.299683 27,150 276 480 1472
2019-09-13 17:40:56 GMT 25.041473 45.324669 26,925 276 477 1344
2019-09-13 17:40:45 GMT 25.039099 45.350266 26,700 276 475 1408
2019-09-13 17:40:34 GMT 25.036631 45.376698 26,450 276 473 1472
2019-09-13 17:40:25 GMT 25.034443 45.400120 26,225 276 471 1536
2019-09-13 17:40:14 GMT 25.032120 45.425617 25,950 276 469 1664
2019-09-13 17:40:04 GMT 25.029785 45.450336 25,675 277 468 1664
2019-09-13 17:39:53 GMT 25.027451 45.475006 25,425 277 467 1536
2019-09-13 17:39:43 GMT 25.025040 45.499825 25,175 277 465 1600
2019-09-13 17:39:32 GMT 25.022758 45.523819 24,925 277 463 1536
2019-09-13 17:39:22 GMT 25.020292 45.549160 24,700 277 461 1408
2019-09-13 17:39:11 GMT 25.017975 45.573627 24,475 276 459 1472
2019-09-13 17:39:00 GMT 25.015594 45.598705 24,200 276 457 1600
2019-09-13 17:38:50 GMT 25.013355 45.622490 23,950 276 455 1664
2019-09-13 17:38:39 GMT 25.011028 45.647312 23,675 276 453 1600
2019-09-13 17:38:29 GMT 25.008841 45.671150 23,425 276 451 1728
2019-09-13 17:38:18 GMT 25.006668 45.696003 23,125 276 449 1792
2019-09-13 17:38:12 GMT 25.005442 45.710327 22,950 276 448 1792
2019-09-13 17:38:08 GMT 25.004744 45.718048 22,850 276 448 1856
2019-09-13 17:37:58 GMT 25.002647 45.742043 22,550 276 446 1856
2019-09-13 17:37:47 GMT 25.000647 45.765053 22,250 276 444 1792
2019-09-13 17:37:37 GMT 24.998552 45.788891 21,975 276 442 1856
2019-09-13 17:37:26 GMT 24.994688 45.833096 21,400 276 440 1856
2019-09-13 17:37:14 GMT 24.993622 45.844879 21,250 276 436 1792
2019-09-13 17:37:05 GMT 24.992386 45.859070 21,075 276 436 1792
2019-09-13 17:36:53 GMT 24.989660 45.888805 20,725 276 432 1344
2019-09-13 17:36:44 GMT 24.987753 45.909691 20,575 276 426 896
2019-09-13 17:36:32 GMT 24.985748 45.931751 20,450 276 418 704
2019-09-13 17:36:22 GMT 24.983702 45.954670 20,350 276 409 832
2019-09-13 17:36:12 GMT 24.981934 45.974880 20,200 276 401 1472
2019-09-13 17:36:01 GMT 24.980070 45.996387 19,975 276 398 2048
2019-09-13 17:35:51 GMT 24.978287 46.017151 19,550 276 395 2176
2019-09-13 17:35:40 GMT 24.976501 46.037548 19,200 276 393 2432
2019-09-13 17:35:30 GMT 24.974625 46.058300 18,800 276 393 2368
2019-09-13 17:35:20 GMT 24.972528 46.080753 18,375 277 391 2560
2019-09-13 17:35:10 GMT 24.970825 46.098785 18,025 276 390 2496
2019-09-13 17:35:00 GMT 24.968994 46.118114 17,675 276 387 2048
2019-09-13 17:34:50 GMT 24.967072 46.139679 17,325 276 384 2496
2019-09-13 17:34:39 GMT 24.965361 46.158901 16,900 276 382 2752
2019-09-13 17:34:28 GMT 24.963547 46.178486 16,500 276 380 2432
2019-09-13 17:34:18 GMT 24.961716 46.198883 16,100 276 377 2432
2019-09-13 17:34:07 GMT 24.959930 46.219482 15,700 276 373 2304
2019-09-13 17:33:57 GMT 24.958284 46.238968 15,300 276 370 2560
2019-09-13 17:33:46 GMT 24.956726 46.258648 14,875 275 368 2752
2019-09-13 17:33:35 GMT 24.955032 46.279144 14,425 276 365 2688
2019-09-13 17:33:23 GMT 24.953156 46.301624 13,900 276 362 2624
2019-09-13 17:33:17 GMT 24.951965 46.315918 13,550 276 360 3456
2019-09-13 17:33:14 GMT 24.951828 46.317749 13,500 276 360 3520
2019-09-13 17:33:04 GMT 24.950317 46.337177 12,825 276 363 4416
2019-09-13 17:32:53 GMT 24.948669 46.356403 12,150 275 367 3392
2019-09-13 17:32:43 GMT 24.948074 46.375782 11,750 269 363 1600
2019-09-13 17:32:32 GMT 24.949020 46.395004 11,525 266 353 1472
2019-09-13 17:32:22 GMT 24.950821 46.413471 11,325 262 343 1536
2019-09-13 17:32:14 GMT 24.954653 46.429310 11,075 252 331 1536
2019-09-13 17:32:11 GMT 24.955215 46.431072 11,050 252 331 1536
2019-09-13 17:32:01 GMT 24.960251 46.447094 10,825 251 318 1408
2019-09-13 17:31:53 GMT 24.964188 46.459503 10,625 251 308 1984
2019-09-13 17:31:50 GMT 24.965361 46.463203 10,525 251 305 2368
2019-09-13 17:31:44 GMT 24.969360 46.475880 10,125 252 301 3392
2019-09-13 17:31:39 GMT 24.970434 46.479218 10,000 252 301 3328
2019-09-13 17:31:32 GMT 24.973972 46.490513 9,600 251 299 3328
2019-09-13 17:31:29 GMT 24.975042 46.493984 9,475 252 299 3328
2019-09-13 17:31:22 GMT 24.978395 46.504608 9,100 251 297 3392
2019-09-13 17:31:18 GMT 24.980024 46.509792 8,900 251 297 3328
2019-09-13 17:31:12 GMT 24.982958 46.519222 8,575 252 296 3392
2019-09-13 17:31:08 GMT 24.984587 46.524353 8,375 252 294 3392
2019-09-13 17:31:01 GMT 24.987534 46.533863 8,025 252 293 3392
2019-09-13 17:30:57 GMT 24.989241 46.539379 7,825 252 293 3392
2019-09-13 17:30:52 GMT 24.992203 46.549122 7,450 252 291 3520
2019-09-13 17:30:47 GMT 24.993710 46.554100 7,275 252 291 3584
2019-09-13 17:30:41 GMT 24.996597 46.563824 6,875 253 291 3712
2019-09-13 17:30:37 GMT 24.997852 46.568249 6,700 254 291 3520
2019-09-13 17:30:31 GMT 25.000925 46.579906 6,250 256 290 3328
2019-09-13 17:30:26 GMT 25.001770 46.583508 6,125 257 290 3264
2019-09-13 17:30:19 GMT 25.003859 46.594883 5,775 263 287 2816
2019-09-13 17:30:15 GMT 25.004333 46.599987 5,625 267 285 2560
2019-09-13 17:30:10 GMT 25.004417 46.609032 5,425 273 265 1600
2019-09-13 17:30:05 GMT 25.004196 46.614025 5,325 273 274 1664
2019-09-13 17:30:00 GMT 25.003859 46.622971 5,150 273 265 1600
2019-09-13 17:29:55 GMT 25.003626 46.628307 5,050 273 259 1600
2019-09-13 17:29:48 GMT 25.003206 46.637947 4,875 273 243 1472
2019-09-13 17:29:44 GMT 25.003052 46.641846 4,800 273 243 1472
2019-09-13 17:29:34 GMT 25.002462 46.654480 4,575 274 228 1280
2019-09-13 17:29:23 GMT 25.001623 46.666607 4,350 277 211 1664
2019-09-13 17:29:13 GMT 24.999893 46.677044 4,075 289 200 1792
2019-09-13 17:29:02 GMT 24.995316 46.686249 3,750 313 190 2624
2019-09-13 17:28:52 GMT 24.988358 46.692707 3,325 326 187 2816
2019-09-13 17:28:41 GMT 24.980713 46.698406 2,875 326 189 2560
2019-09-13 17:28:31 GMT 24.973022 46.703999 2,525 328 182 1728
We lost coverage of the aircraft here for a total of 82 minutes
2019-09-13 16:06:11 GMT 24.952232 46.686764 2,100 330 116 -64
2019-09-13 16:05:47 GMT 24.937546 46.696014 2,150 331 170 -896
2019-09-13 16:05:41 GMT 24.933975 46.698254 2,225 331 170 -896
2019-09-13 16:05:30 GMT 24.926210 46.703140 2,375 331 170 -960
2019-09-13 16:05:20 GMT 24.919228 46.707546 2,525 331 170 -896
2019-09-13 16:05:10 GMT 24.912245 46.712002 2,650 331 170 -960
2019-09-13 16:04:58 GMT 24.904037 46.717121 2,825 331 170 -896
2019-09-13 16:04:48 GMT 24.897491 46.721294 2,950 330 169 -896
2019-09-13 16:04:38 GMT 24.890457 46.725735 3,100 331 168 -960
2019-09-13 16:04:27 GMT 24.883209 46.730297 3,250 331 168 -960
2019-09-13 16:04:16 GMT 24.875885 46.734924 3,400 330 169 -960
2019-09-13 16:04:06 GMT 24.868578 46.739571 3,550 331 169 -1088
2019-09-13 16:04:00 GMT 24.864388 46.742214 3,650 331 169 -960
2019-09-13 16:03:53 GMT 24.859406 46.745350 3,750 330 169 -960
2019-09-13 16:03:44 GMT 24.853960 46.748795 3,850 331 170 -960
2019-09-13 16:03:41 GMT 24.851912 46.750092 3,900 331 170 -896
2019-09-13 16:03:32 GMT 24.844744 46.754601 4,025 331 178 -832
2019-09-13 16:03:23 GMT 24.838598 46.758434 4,150 330 185 -1280
2019-09-13 16:03:20 GMT 24.836700 46.759644 4,200 331 188 -1344
2019-09-13 16:03:10 GMT 24.829195 46.764393 4,400 331 191 -1216
2019-09-13 16:03:01 GMT 24.820679 46.769764 4,550 331 198 -896
2019-09-13 16:02:49 GMT 24.812389 46.774967 4,700 331 202 -832
2019-09-13 16:02:40 GMT 24.804337 46.780094 4,850 331 208 -1152
2019-09-13 16:02:29 GMT 24.794931 46.786003 5,050 331 216 -1216
2019-09-13 16:02:18 GMT 24.785568 46.791889 5,225 331 224 -1408
2019-09-13 16:02:08 GMT 24.776733 46.797485 5,475 330 221 -2112
2019-09-13 16:01:57 GMT 24.766768 46.803726 5,825 331 215 -1536
2019-09-13 16:01:47 GMT 24.758389 46.808701 6,000 334 215 -704
2019-09-13 16:01:34 GMT 24.746063 46.814831 6,225 338 217 -1664
2019-09-13 16:01:26 GMT 24.737915 46.818493 6,400 338 224 -1408
2019-09-13 16:01:15 GMT 24.727936 46.822918 6,750 339 232 -2048
2019-09-13 16:01:04 GMT 24.717453 46.827496 7,025 338 234 -2496
2019-09-13 16:00:54 GMT 24.707088 46.832176 7,425 338 235 -2624
2019-09-13 16:00:43 GMT 24.696148 46.837048 7,875 339 235 -2752
2019-09-13 16:00:33 GMT 24.685814 46.841610 8,225 338 238 -1600
2019-09-13 16:00:22 GMT 24.674547 46.846638 8,450 338 247 -1216
2019-09-13 16:00:12 GMT 24.663208 46.851654 8,625 338 256 -1152
2019-09-13 16:00:01 GMT 24.651398 46.856945 8,825 338 264 -1280
2019-09-13 15:59:50 GMT 24.639074 46.862495 9,075 338 272 -1600
2019-09-13 15:59:40 GMT 24.626740 46.868038 9,325 338 281 -1408
2019-09-13 15:59:32 GMT 24.613750 46.873844 9,525 338 290 -1408
2019-09-13 15:59:19 GMT 24.600128 46.879883 9,825 339 291 -2176
2019-09-13 15:59:08 GMT 24.587215 46.885658 10,150 338 290 -1920
2019-09-13 15:59:01 GMT 24.576599 46.890362 10,400 338 290 -1600
2019-09-13 15:58:57 GMT 24.573483 46.891773 10,450 338 290 -1536
2019-09-13 15:58:50 GMT 24.563599 46.896160 10,575 338 293 -768
2019-09-13 15:58:46 GMT 24.559656 46.897942 10,625 338 296 -768
2019-09-13 15:58:40 GMT 24.550552 46.901958 10,700 338 299 -576
2019-09-13 15:58:36 GMT 24.546982 46.903584 10,725 338 300 -576
2019-09-13 15:58:29 GMT 24.536545 46.908215 10,800 338 304 -576
2019-09-13 15:58:25 GMT 24.532749 46.909912 10,825 338 306 -704
2019-09-13 15:58:18 GMT 24.523087 46.914265 10,900 338 311 -640
2019-09-13 15:58:15 GMT 24.518925 46.916077 10,925 338 312 -576
2019-09-13 15:58:04 GMT 24.504585 46.922504 11,000 338 318 -576
2019-09-13 15:57:56 GMT 24.492203 46.927998 11,100 338 322 -896
2019-09-13 15:57:53 GMT 24.489410 46.929241 11,125 338 324 -1024
2019-09-13 15:57:47 GMT 24.479633 46.933647 11,250 338 327 -960
2019-09-13 15:57:43 GMT 24.475397 46.935513 11,300 338 327 -1024
2019-09-13 15:57:38 GMT 24.465483 46.939915 11,400 338 330 -960
2019-09-13 15:57:33 GMT 24.460190 46.942291 11,450 338 332 -1024
2019-09-13 15:57:27 GMT 24.450584 46.946602 11,550 338 336 -1024
2019-09-13 15:57:22 GMT 24.445221 46.949005 11,600 338 338 -1024
2019-09-13 15:57:16 GMT 24.434851 46.953598 11,725 338 341 -1024
2019-09-13 15:57:12 GMT 24.429428 46.956024 11,775 338 343 -1152
2019-09-13 15:57:06 GMT 24.420502 46.959991 11,875 338 346 -1024
2019-09-13 15:57:01 GMT 24.413635 46.963093 11,950 338 349 -1024
2019-09-13 15:56:55 GMT 24.404499 46.967175 12,050 338 353 -896
2019-09-13 15:56:50 GMT 24.397190 46.970440 12,100 338 356 -832
2019-09-13 15:56:46 GMT 24.389053 46.974030 12,175 339 359 -832
2019-09-13 15:56:40 GMT 24.380951 46.977589 12,250 339 363 -960
2019-09-13 15:56:35 GMT 24.372936 46.981064 12,325 339 366 -1152
2019-09-13 15:56:29 GMT 24.364092 46.985001 12,425 338 369 -1344
2019-09-13 15:56:24 GMT 24.356277 46.988476 12,525 338 371 -1536
2019-09-13 15:56:18 GMT 24.346985 46.992596 12,675 338 373 -1664
2019-09-13 15:56:15 GMT 24.339935 46.995747 12,775 338 375 -1664
2019-09-13 15:56:07 GMT 24.329363 47.000393 12,950 339 377 -1664
2019-09-13 15:56:04 GMT 24.322893 47.003242 13,050 339 379 -1600
2019-09-13 15:55:56 GMT 24.310741 47.008633 13,225 338 383 -1536
2019-09-13 15:55:53 GMT 24.305807 47.010860 13,300 338 383 -1728
2019-09-13 15:55:43 GMT 24.288584 47.018581 13,600 338 387 -2048
2019-09-13 15:55:35 GMT 24.275803 47.024281 13,850 338 388 -2112
2019-09-13 15:55:32 GMT 24.271591 47.026150 13,925 338 388 -2112
2019-09-13 15:55:23 GMT 24.253857 47.033920 14,275 339 389 -2240
2019-09-13 15:55:12 GMT 24.236572 47.041523 14,550 339 390 -2176
2019-09-13 15:55:01 GMT 24.218719 47.049408 14,950 338 392 -1920
2019-09-13 15:54:52 GMT 24.201782 47.056934 15,250 338 396 -1920
2019-09-13 15:54:40 GMT 24.182648 47.065430 15,575 338 398 -1856
2019-09-13 15:54:30 GMT 24.164749 47.073315 15,800 339 401 -1856
2019-09-13 15:54:21 GMT 24.148321 47.080612 16,150 338 404 -1920
2019-09-13 15:54:09 GMT 24.129841 47.088802 16,425 338 406 -1728
2019-09-13 15:53:59 GMT 24.111374 47.097015 16,725 338 411 -1792
2019-09-13 15:53:50 GMT 24.092560 47.105408 17,050 338 414 -2048
2019-09-13 15:53:38 GMT 24.074862 47.113262 17,350 339 417 -1984
2019-09-13 15:53:28 GMT 24.057449 47.121021 17,650 337 420 -1984
2019-09-13 15:53:18 GMT 24.038738 47.130207 18,000 335 422 -2240
2019-09-13 15:53:07 GMT 24.020117 47.140366 18,375 333 424 -2496
2019-09-13 15:52:56 GMT 24.000797 47.151871 18,825 330 422 -2944
2019-09-13 15:52:48 GMT 23.985016 47.162182 19,250 328 424 -2816
2019-09-13 15:52:35 GMT 23.965393 47.175648 19,775 328 430 -2880
2019-09-13 15:52:24 GMT 23.946938 47.188404 20,250 328 434 -3200
2019-09-13 15:52:13 GMT 23.928501 47.201099 20,825 328 436 -3456
2019-09-13 15:52:03 GMT 23.910625 47.213329 21,375 328 438 -3520
2019-09-13 15:51:56 GMT 23.897690 47.222187 21,775 328 440 -3520
2019-09-13 15:51:52 GMT 23.892330 47.225872 21,950 328 440 -3520
2019-09-13 15:51:45 GMT 23.879333 47.234802 22,350 328 442 -3328
2019-09-13 15:51:42 GMT 23.874115 47.238361 22,500 328 443 -3200
2019-09-13 15:51:35 GMT 23.860153 47.247875 22,875 328 446 -3072
2019-09-13 15:51:31 GMT 23.855576 47.251026 23,000 328 447 -3008
2019-09-13 15:51:24 GMT 23.840790 47.261150 23,400 328 450 -2944
2019-09-13 15:51:20 GMT 23.836166 47.264301 23,500 328 453 -2880
2019-09-13 15:51:14 GMT 23.823200 47.273235 23,825 328 456 -2688
2019-09-13 15:51:10 GMT 23.817627 47.277020 23,950 328 458 -2688
2019-09-13 15:50:59 GMT 23.798035 47.290394 24,375 328 465 -2624
2019-09-13 15:50:48 GMT 23.778580 47.303669 24,850 328 470 -3136
2019-09-13 15:50:43 GMT 23.766312 47.312012 25,175 329 473 -3584
2019-09-13 15:50:38 GMT 23.759216 47.316792 25,375 329 474 -3584
2019-09-13 15:50:32 GMT 23.746490 47.325390 25,775 329 476 -3584
2019-09-13 15:50:27 GMT 23.739349 47.330219 25,975 328 476 -3392
2019-09-13 15:50:20 GMT 23.725067 47.339985 26,350 328 480 -3200
2019-09-13 15:50:16 GMT 23.718658 47.344360 26,525 328 481 -3200
2019-09-13 15:50:06 GMT 23.699341 47.357635 27,050 328 485 -3712
2019-09-13 15:50:02 GMT 23.687735 47.365635 27,425 328 486 -3968
2019-09-13 15:49:55 GMT 23.678934 47.371597 27,700 329 486 -4032
2019-09-13 15:49:51 GMT 23.669718 47.377865 27,975 328 487 -3968
2019-09-13 15:49:45 GMT 23.658417 47.385559 28,325 328 488 -3840
2019-09-13 15:49:37 GMT 23.643974 47.395329 28,750 329 489 -3648
2019-09-13 15:49:33 GMT 23.636713 47.400253 28,950 329 489 -3264
2019-09-13 15:49:23 GMT 23.616974 47.413624 29,375 329 493 -2432
2019-09-13 15:49:13 GMT 23.596527 47.427521 29,750 329 496 -2112
2019-09-13 15:49:02 GMT 23.574188 47.442677 29,975 328 497 -1984
2019-09-13 15:48:59 GMT 23.566315 47.448017 30,200 328 504 -1600
2019-09-13 15:48:51 GMT 23.554642 47.455963 30,350 328 506 -1536
2019-09-13 15:48:40 GMT 23.530884 47.472221 30,625 328 511 -1664
2019-09-13 15:48:30 GMT 23.512558 47.484791 30,875 328 516 -2048
2019-09-13 15:48:20 GMT 23.491005 47.499493 31,225 328 518 -2496
2019-09-13 15:48:09 GMT 23.469177 47.514271 31,725 329 518 -3136
2019-09-13 15:47:58 GMT 23.446918 47.529297 32,225 329 519 -2944
2019-09-13 15:47:48 GMT 23.426529 47.543030 32,675 328 518 -3008
2019-09-13 15:47:38 GMT 23.405136 47.557568 33,150 329 517 -2816
2019-09-13 15:47:27 GMT 23.383747 47.572071 33,600 328 518 -2432
2019-09-13 15:47:16 GMT 23.360733 47.587730 34,000 328 520 -2432
2019-09-13 15:47:05 GMT 23.337568 47.603352 34,450 329 520 -2624
2019-09-13 15:46:55 GMT 23.292114 47.634171 35,550 328 514 -3072
2019-09-13 15:46:43 GMT 23.292114 47.634171 35,550 328 514 -3072
2019-09-13 15:46:34 GMT 23.274908 47.645824 36,800 328 513 -2880
2019-09-13 15:46:22 GMT 23.250702 47.662251 36,475 328 513 -2880
2019-09-13 15:46:12 GMT 23.231644 47.675171 36,900 329 510 -3072
2019-09-13 15:46:02 GMT 23.210201 47.689617 37,400 329 508 -2496
2019-09-13 15:45:53 GMT 23.190649 47.702839 37,750 329 507 -1792
2019-09-13 15:45:40 GMT 23.167093 47.718708 38,000 329 508 -320
2019-09-13 15:45:28 GMT 23.143911 47.734375 38,000 329 508 -64
2019-09-13 15:45:22 GMT 23.121891 47.749226 38,000 329 508 -64
2019-09-13 15:45:08 GMT 23.103287 47.761765 38,000 329 508 -64
2019-09-13 15:44:58 GMT 23.082916 47.775547 38,000 329 508 0
2019-09-13 15:44:46 GMT 23.059708 47.791126 38,000 329 507 0
2019-09-13 15:44:36 GMT 23.038330 47.805531 37,975 329 507 0
2019-09-13 15:44:25 GMT 23.017521 47.819519 38,000 329 508 0
2019-09-13 15:44:15 GMT 22.996490 47.833626 38,000 329 508 -64
2019-09-13 15:44:04 GMT 22.975065 47.848053 38,000 329 509 -64
2019-09-13 15:43:54 GMT 22.954376 47.861889 37,975 329 509 64
2019-09-13 15:43:42 GMT 22.931307 47.877399 38,000 329 510 0
2019-09-13 15:43:32 GMT 22.910776 47.891132 37,975 329 511 -64
2019-09-13 15:43:21 GMT 22.888990 47.905731 38,000 329 512 -64
2019-09-13 15:43:10 GMT 22.865341 47.921616 37,975 329 513 0
2019-09-13 15:43:00 GMT 22.846535 47.934265 38,000 329 515 -64
2019-09-13 15:42:49 GMT 22.824051 47.949429 38,000 329 515 -64
2019-09-13 15:42:39 GMT 22.803568 47.963257 38,000 328 515 64
2019-09-13 15:42:28 GMT 22.781891 47.977844 37,975 329 515 64
2019-09-13 15:42:17 GMT 22.759296 47.992859 37,975 328 515 64
2019-09-13 15:42:07 GMT 22.738859 48.009083 37,975 318 518 0
2019-09-13 15:41:55 GMT 22.720007 48.029835 37,975 310 521 -64
2019-09-13 15:41:46 GMT 22.706223 48.050953 37,975 300 523 0
2019-09-13 15:41:34 GMT 22.694138 48.077770 38,000 290 524 -128
2019-09-13 15:41:24 GMT 22.687408 48.102440 38,000 282 525 -128
2019-09-13 15:41:14 GMT 22.683834 48.130238 38,000 276 525 64
2019-09-13 15:41:03 GMT 22.681458 48.157619 37,975 276 525 0
2019-09-13 15:40:52 GMT 22.678894 48.187935 37,975 276 525 -64
2019-09-13 15:40:42 GMT 22.676743 48.213001 37,975 276 525 -64
2019-09-13 15:40:31 GMT 22.674179 48.242813 37,975 276 525 -64
2019-09-13 15:40:21 GMT 22.671917 48.268688 38,000 276 525 -64
2019-09-13 15:40:10 GMT 22.669497 48.296917 38,000 276 525 0
2019-09-13 15:39:59 GMT 22.667076 48.324635 37,975 276 525 0
2019-09-13 15:39:48 GMT 22.664610 48.352814 38,000 276 525 -64
2019-09-13 15:39:38 GMT 22.662323 48.379196 37,975 276 524 0
2019-09-13 15:39:28 GMT 22.659897 48.406860 38,000 276 524 64
2019-09-13 15:39:17 GMT 22.657379 48.435574 37,975 276 524 0
2019-09-13 15:39:06 GMT 22.654926 48.463490 38,000 276 525 -64
2019-09-13 15:38:55 GMT 22.652506 48.491161 38,000 276 525 -64
2019-09-13 15:38:45 GMT 22.650101 48.518620 37,975 276 525 -64
2019-09-13 15:38:33 GMT 22.647385 48.549145 38,000 276 524 -64
2019-09-13 15:38:24 GMT 22.645248 48.573402 38,000 276 524 0
2019-09-13 15:38:13 GMT 22.642776 48.601070 37,975 276 524 0
2019-09-13 15:38:02 GMT 22.640076 48.631283 38,000 276 524 0
2019-09-13 15:37:52 GMT 22.635406 48.683968 37,975 276 524 -64
2019-09-13 15:37:42 GMT 22.632935 48.711632 37,975 276 524 -64
2019-09-13 15:37:31 GMT 22.630463 48.739796 38,000 276 524 -64
2019-09-13 15:37:20 GMT 22.630463 48.739796 38,000 276 524 -64
2019-09-13 15:37:09 GMT 22.627167 48.776798 38,000 276 524 -64
2019-09-13 15:36:59 GMT 22.625458 48.795826 38,000 276 524 -64
2019-09-13 15:36:54 GMT 22.624388 48.807831 38,000 276 524 -64
2019-09-13 15:36:48 GMT 22.623037 48.822937 38,000 276 523 -64
2019-09-13 15:36:44 GMT 22.621994 48.834129 38,000 276 523 0
2019-09-13 15:36:37 GMT 22.620384 48.851574 37,975 276 523 0
2019-09-13 15:36:31 GMT 22.618895 48.868206 37,975 276 523 0
2019-09-13 15:36:26 GMT 22.617828 48.879921 37,975 276 523 0
2019-09-13 15:36:20 GMT 22.616226 48.897099 37,975 276 523 -64
2019-09-13 15:36:17 GMT 22.615496 48.905182 38,000 276 523 -64
2019-09-13 15:36:09 GMT 22.613800 48.923618 38,000 276 523 0
2019-09-13 15:36:06 GMT 22.612936 48.933258 38,000 276 523 -64
2019-09-13 15:36:00 GMT 22.611631 48.947803 38,000 276 523 -64
2019-09-13 15:35:55 GMT 22.610516 48.960316 38,000 276 522 -64
2019-09-13 15:35:49 GMT 22.608994 48.976650 37,975 276 522 64
2019-09-13 15:35:45 GMT 22.607956 48.988342 38,000 276 522 0
2019-09-13 15:35:34 GMT 22.605515 49.015102 37,975 276 522 0
2019-09-13 15:35:28 GMT 22.603951 49.032543 38,000 276 522 -64
2019-09-13 15:35:24 GMT 22.602997 49.043167 37,975 276 522 -64
2019-09-13 15:35:18 GMT 22.601624 49.058483 38,000 276 522 -64
2019-09-13 15:35:13 GMT 22.600554 49.070435 38,000 276 522 -64
2019-09-13 15:35:07 GMT 22.599064 49.086559 38,000 276 522 -64
2019-09-13 15:35:02 GMT 22.597898 49.099579 38,000 276 522 -64
2019-09-13 15:34:56 GMT 22.596457 49.115143 37,975 276 522 0
2019-09-13 15:34:52 GMT 22.595444 49.126316 37,975 276 522 0
2019-09-13 15:34:45 GMT 22.593988 49.142151 37,975 276 522 -64
2019-09-13 15:34:40 GMT 22.592743 49.155930 38,000 276 522 -64
2019-09-13 15:34:31 GMT 22.590500 49.180397 38,000 276 522 0
2019-09-13 15:34:23 GMT 22.588623 49.201172 37,975 276 522 0
2019-09-13 15:34:19 GMT 22.587845 49.209747 37,975 276 522 0
2019-09-13 15:34:12 GMT 22.586014 49.229736 37,975 276 522 0
2019-09-13 15:34:09 GMT 22.585373 49.236477 37,975 276 522 0
2019-09-13 15:33:59 GMT 22.582901 49.263493 38,000 276 522 -64
2019-09-13 15:33:48 GMT 22.580200 49.292557 38,000 276 522 0
2019-09-13 15:33:37 GMT 22.577742 49.319305 37,975 276 522 -64
2019-09-13 15:33:27 GMT 22.575275 49.345806 37,975 276 522 -64
2019-09-13 15:33:16 GMT 22.572556 49.375107 37,975 276 521 -64
2019-09-13 15:33:04 GMT 22.569735 49.404957 38,000 276 521 -64
2019-09-13 15:32:52 GMT 22.566742 49.436329 38,000 276 521 0
2019-09-13 15:32:43 GMT 22.564383 49.460907 38,000 276 521 0
2019-09-13 15:32:33 GMT 22.561890 49.486568 38,000 277 521 0
2019-09-13 15:32:21 GMT 22.558889 49.516857 37,975 277 522 0
2019-09-13 15:32:12 GMT 22.556467 49.541218 37,975 277 522 0
2019-09-13 15:31:49 GMT 22.550650 49.599304 38,000 277 522 -64
2019-09-13 15:31:35 GMT 22.547018 49.635571 38,000 277 523 -64
2019-09-13 15:31:28 GMT 22.545202 49.653728 38,000 277 522 0
2019-09-13 15:31:18 GMT 22.542435 49.681473 37,975 277 521 0
2019-09-13 15:31:05 GMT 22.539459 49.712635 37,975 276 522 -64
2019-09-13 15:30:55 GMT 22.537195 49.739330 38,000 275 522 0
2019-09-13 15:30:42 GMT 22.534973 49.775009 38,000 274 521 -64
2019-09-13 15:30:33 GMT 22.533783 49.796329 38,000 274 521 -64
2019-09-13 15:30:20 GMT 22.531906 49.830688 37,975 274 521 64
2019-09-13 15:30:11 GMT 22.530762 49.853611 38,000 273 522 0
2019-09-13 15:30:01 GMT 22.529469 49.880421 38,000 273 522 0
2019-09-13 15:29:18 GMT 22.524170 49.991737 38,000 274 522 0
2019-09-13 15:29:06 GMT 22.522522 50.024548 37,975 274 521 0
2019-09-13 15:28:41 GMT 22.519272 50.090115 38,000 274 521 0
2019-09-13 15:28:34 GMT 22.518435 50.107525 38,000 274 521 -64
2019-09-13 15:28:22 GMT 22.516897 50.139263 38,000 274 521 0
2019-09-13 15:28:12 GMT 22.515610 50.164524 37,975 274 521 0
2019-09-13 15:27:46 GMT 22.512337 50.231323 38,000 274 521 -64
2019-09-13 15:26:27 GMT 22.501909 50.437115 38,000 274 522 -64
2019-09-13 15:26:21 GMT 22.501072 50.453796 38,000 274 522 -64
2019-09-13 15:26:12 GMT 22.499861 50.476685 38,000 274 521 0
2019-09-13 15:26:03 GMT 22.498627 50.500355 38,000 274 521 -64
2019-09-13 15:25:50 GMT 22.496881 50.533905 38,000 274 521 0
2019-09-13 15:25:41 GMT 22.495743 50.555984 38,000 274 521 0
2019-09-13 15:25:25 GMT 22.493528 50.597839 37,975 274 521 0
2019-09-13 15:25:19 GMT 22.492676 50.613663 38,000 274 521 0
2019-09-13 15:24:58 GMT 22.489792 50.668797 38,000 274 521 -64
2019-09-13 15:24:43 GMT 22.487803 50.706532 38,000 274 522 0
2019-09-13 15:24:35 GMT 22.486633 50.728672 37,975 274 522 0
2019-09-13 15:24:24 GMT 22.485031 50.758385 38,000 274 523 0
2019-09-13 15:24:08 GMT 22.482916 50.797729 37,975 274 523 0
2019-09-13 15:23:58 GMT 22.481506 50.824100 37,975 274 523 0
2019-09-13 15:23:51 GMT 22.480448 50.843201 37,975 274 523 -64
2019-09-13 15:23:34 GMT 22.478027 50.888111 38,000 274 524 0
2019-09-13 15:22:47 GMT 22.471371 51.011200 37,975 274 522 -64
2019-09-13 15:20:50 GMT 22.454269 51.316040 37,975 274 522 0
2019-09-13 15:20:40 GMT 22.452896 51.340511 38,000 274 522 -64
2019-09-13 15:20:35 GMT 22.452118 51.354042 37,975 274 521 -64
2019-09-13 15:20:20 GMT 22.449909 51.393280 38,000 274 521 -64
2019-09-13 15:20:10 GMT 22.448456 51.418514 37,975 274 521 0
2019-09-13 15:16:34 GMT 22.415039 51.983360 37,975 274 524 -64
2019-09-13 15:16:03 GMT 22.409922 52.064007 37,975 270 524 -64
2019-09-13 15:15:13 GMT 22.418701 52.192848 38,000 258 520 0
2019-09-13 15:15:04 GMT 22.423328 52.215374 37,975 258 520 0
2019-09-13 15:14:57 GMT 22.427147 52.234089 37,975 258 519 0
2019-09-13 15:14:43 GMT 22.434219 52.268307 37,975 258 519 0
2019-09-13 15:14:35 GMT 22.438522 52.289028 38,000 258 520 -64
2019-09-13 15:14:21 GMT 22.446167 52.326035 37,975 258 520 -64
2019-09-13 15:14:15 GMT 22.449211 52.341003 38,000 258 520 -64
2019-09-13 15:14:00 GMT 22.456741 52.377720 37,975 258 520 -64
2019-09-13 15:13:52 GMT 22.461176 52.399292 38,000 258 520 -64
2019-09-13 15:13:41 GMT 22.466537 52.425362 38,000 258 520 -64
2019-09-13 15:13:30 GMT 22.472260 52.453224 38,000 258 519 0
2019-09-13 15:12:46 GMT 22.495331 52.566086 37,975 258 519 0
2019-09-13 15:12:29 GMT 22.503817 52.607880 37,975 258 519 0
2019-09-13 15:12:15 GMT 22.511398 52.645138 38,000 258 520 -64
2019-09-13 15:12:03 GMT 22.517456 52.674763 38,000 258 519 -64
2019-09-13 15:11:53 GMT 22.522623 52.700146 38,000 258 519 -64
2019-09-13 15:11:18 GMT 22.540407 52.787781 37,975 258 519 -64
2019-09-13 15:11:08 GMT 22.545502 52.812878 38,000 258 519 -64
2019-09-13 15:10:58 GMT 22.550583 52.838196 38,000 258 519 -64
2019-09-13 15:10:47 GMT 22.556259 52.866112 38,000 258 519 -64
2019-09-13 15:09:03 GMT 22.609497 53.131130 37,975 258 518 -64
2019-09-13 15:08:53 GMT 22.614258 53.154953 37,975 258 518 0
2019-09-13 15:08:45 GMT 22.618242 53.174896 37,975 258 517 -64
2019-09-13 15:08:33 GMT 22.624466 53.205990 37,975 258 517 0
2019-09-13 15:08:23 GMT 22.629601 53.231506 38,000 258 517 -64
2019-09-13 15:08:09 GMT 22.636444 53.265888 37,975 258 516 0
2019-09-13 15:08:01 GMT 22.640625 53.286789 37,975 258 516 0
2019-09-13 15:07:50 GMT 22.646406 53.315784 38,000 258 515 -64
2019-09-13 15:07:33 GMT 22.654739 53.357594 37,975 258 515 64
2019-09-13 15:07:29 GMT 22.656927 53.368683 37,975 258 515 64
2019-09-13 15:07:15 GMT 22.663816 53.403370 37,975 258 514 0
2019-09-13 15:07:06 GMT 22.668240 53.425549 37,975 258 515 -64
2019-09-13 15:06:55 GMT 22.673538 53.452480 37,975 259 515 0
2019-09-13 15:06:13 GMT 22.694870 53.560398 38,000 259 516 -64
2019-09-13 15:06:01 GMT 22.700500 53.588917 37,975 259 515 0
2019-09-13 15:04:21 GMT 22.749754 53.839771 38,000 259 515 0
2019-09-13 15:03:50 GMT 22.765320 53.919651 37,975 259 515 -64
We lost coverage of the aircraft here for a total of 9 minutes
2019-09-13 14:55:18 GMT 23.023479 55.210979 38,000 258 515 -64
2019-09-13 14:55:07 GMT 23.028946 55.238510 38,000 260 515 0
2019-09-13 14:54:56 GMT 23.033209 55.264740 37,975 262 515 64
2019-09-13 14:54:46 GMT 23.036514 55.291443 37,975 264 517 0
2019-09-13 14:54:35 GMT 23.038834 55.320057 38,000 267 517 -64
2019-09-13 14:54:26 GMT 23.039841 55.344425 38,000 269 518 -64
2019-09-13 14:54:13 GMT 23.039820 55.376942 37,975 271 519 0
2019-09-13 14:54:05 GMT 23.039520 55.399059 37,975 271 520 -64
2019-09-13 14:53:52 GMT 23.039062 55.432365 38,000 271 520 -64
2019-09-13 14:53:43 GMT 23.038742 55.454788 38,000 271 520 0
2019-09-13 14:53:32 GMT 23.038330 55.484001 37,975 271 521 0
2019-09-13 14:53:21 GMT 23.037918 55.512169 37,975 271 521 0
2019-09-13 14:53:10 GMT 23.037399 55.541637 38,000 271 521 -64
2019-09-13 14:53:01 GMT 23.037048 55.565952 38,000 271 521 -64
2019-09-13 14:52:50 GMT 23.036591 55.593616 37,975 271 521 0
2019-09-13 14:52:39 GMT 23.036142 55.620983 37,975 271 521 -64
2019-09-13 14:52:29 GMT 23.035721 55.649448 38,000 271 521 -128
2019-09-13 14:52:17 GMT 23.035309 55.678162 38,000 271 520 -64
2019-09-13 14:52:07 GMT 23.034897 55.705776 38,000 271 520 0
2019-09-13 14:51:56 GMT 23.034466 55.734661 38,000 271 519 0
2019-09-13 14:51:45 GMT 23.034000 55.762737 38,000 271 519 0
2019-09-13 14:51:35 GMT 23.033569 55.789524 38,000 271 519 -64
2019-09-13 14:51:24 GMT 23.033157 55.817039 38,000 271 519 0
2019-09-13 14:51:13 GMT 23.032698 55.845387 37,975 272 519 -64
2019-09-13 14:51:03 GMT 23.032232 55.872955 38,000 272 519 0
2019-09-13 14:50:45 GMT 23.031441 55.918682 37,975 271 519 0
2019-09-13 14:50:40 GMT 23.031235 55.930397 37,975 272 519 -64
2019-09-13 14:50:31 GMT 23.030777 55.955868 37,975 272 519 0
2019-09-13 14:50:17 GMT 23.030184 55.991516 38,000 272 519 -64
2019-09-13 14:50:09 GMT 23.029858 56.011303 38,000 272 519 0
2019-09-13 14:49:55 GMT 23.029221 56.047401 37,975 272 519 -64
2019-09-13 14:49:47 GMT 23.028809 56.068226 37,975 272 518 0
2019-09-13 14:49:36 GMT 23.028259 56.098339 38,000 272 518 0
2019-09-13 14:49:26 GMT 23.027763 56.122997 37,975 272 518 0
2019-09-13 14:48:27 GMT 23.024963 56.277416 38,000 272 518 -64
2019-09-13 14:48:19 GMT 23.024551 56.298473 38,000 272 518 -64
2019-09-13 14:47:54 GMT 23.023294 56.362152 37,975 272 516 -64
2019-09-13 14:47:50 GMT 23.023062 56.373035 37,975 272 516 -64
2019-09-13 14:47:30 GMT 23.021944 56.424206 37,975 272 516 0
2019-09-13 14:47:24 GMT 23.021622 56.440514 37,975 272 516 -64
2019-09-13 14:47:14 GMT 23.021107 56.468708 38,000 272 516 -64
2019-09-13 14:47:03 GMT 23.020548 56.494549 37,975 272 516 0
2019-09-13 14:46:56 GMT 23.020176 56.511639 37,975 272 516 -64
2019-09-13 14:46:46 GMT 23.019608 56.539841 38,000 272 516 -64
2019-09-13 14:46:32 GMT 23.018875 56.573948 38,000 272 515 -64
2019-09-13 14:46:24 GMT 23.018406 56.597443 37,975 272 515 0
2019-09-13 14:46:20 GMT 23.018234 56.604908 38,000 272 515 64
2019-09-13 14:46:03 GMT 23.017242 56.651051 38,000 272 515 0
2019-09-13 14:46:00 GMT 23.017101 56.657764 37,975 272 515 0
2019-09-13 14:45:54 GMT 23.016769 56.672474 37,975 272 515 -64
2019-09-13 14:45:51 GMT 23.016497 56.683552 37,975 272 516 -64
2019-09-13 14:45:40 GMT 23.015938 56.709393 37,975 272 516 0
2019-09-13 14:45:28 GMT 23.015287 56.738892 37,975 272 517 -64
2019-09-13 14:45:15 GMT 23.014448 56.774597 38,000 272 517 -64
2019-09-13 14:45:10 GMT 23.014206 56.786282 38,000 272 517 -64
2019-09-13 14:45:00 GMT 23.013519 56.815746 38,000 272 516 -64
2019-09-13 14:44:50 GMT 23.012493 56.859436 37,975 272 516 64
2019-09-13 14:44:37 GMT 23.012121 56.874897 37,975 272 515 0
2019-09-13 14:44:28 GMT 23.011608 56.896564 37,975 272 515 -64
2019-09-13 14:44:15 GMT 23.010818 56.928856 37,975 272 515 -64
2019-09-13 14:44:05 GMT 23.010166 56.956482 37,975 272 516 -64
2019-09-13 14:43:56 GMT 23.009583 56.980492 38,000 272 516 -64
2019-09-13 14:43:45 GMT 23.008850 57.010506 38,000 272 516 -64
2019-09-13 14:43:33 GMT 23.008211 57.037659 38,000 272 516 0
2019-09-13 14:43:23 GMT 23.007465 57.066143 37,975 272 516 0
2019-09-13 14:43:12 GMT 23.006721 57.095081 38,000 272 517 -64
2019-09-13 14:43:00 GMT 23.005976 57.123566 37,975 272 517 0
2019-09-13 14:42:50 GMT 23.005278 57.149456 38,000 272 517 -64
2019-09-13 14:42:40 GMT 23.004547 57.177696 37,975 272 517 -64
2019-09-13 14:42:29 GMT 23.003927 57.205914 38,000 272 517 0
2019-09-13 14:42:17 GMT 23.003357 57.234676 37,975 272 517 0
2019-09-13 14:42:07 GMT 23.002111 57.262928 38,000 275 517 -64
2019-09-13 14:41:55 GMT 22.999645 57.291309 37,975 280 516 -64
2019-09-13 14:41:45 GMT 22.996292 57.316944 37,975 280 517 -64
2019-09-13 14:41:37 GMT 22.992371 57.340141 38,000 282 517 -64
2019-09-13 14:41:34 GMT 22.990940 57.347462 38,000 283 516 -64
2019-09-13 14:41:23 GMT 22.985167 57.373096 38,000 285 516 -64
2019-09-13 14:41:13 GMT 22.978592 57.399868 37,975 285 516 64
2019-09-13 14:41:01 GMT 22.971451 57.428783 37,975 285 515 64
2019-09-13 14:40:54 GMT 22.967468 57.444763 37,975 286 515 -64
2019-09-13 14:40:50 GMT 22.964630 57.456249 38,000 286 515 -64
2019-09-13 14:40:40 GMT 22.957981 57.482910 38,000 286 515 0
2019-09-13 14:40:33 GMT 22.952114 57.506359 37,975 286 516 64
2019-09-13 14:40:28 GMT 22.950766 57.511852 37,975 285 516 -64
2019-09-13 14:40:21 GMT 22.946732 57.528111 38,000 285 516 -64
2019-09-13 14:40:17 GMT 22.943802 57.540096 38,000 285 516 -64
2019-09-13 14:40:11 GMT 22.940758 57.552338 38,000 286 516 0
2019-09-13 14:40:06 GMT 22.937347 57.566063 38,000 286 516 -64
2019-09-13 14:40:00 GMT 22.933960 57.579803 38,000 285 516 -64
2019-09-13 14:39:55 GMT 22.930374 57.594250 38,000 285 515 0
2019-09-13 14:39:50 GMT 22.927908 57.604267 38,000 285 515 0
2019-09-13 14:39:44 GMT 22.923950 57.620190 38,000 285 515 0
2019-09-13 14:39:38 GMT 22.920319 57.634926 37,975 285 515 64
2019-09-13 14:39:34 GMT 22.917343 57.646912 37,975 286 515 64
2019-09-13 14:39:23 GMT 22.910172 57.675579 37,975 286 516 0
2019-09-13 14:39:17 GMT 22.906542 57.690022 37,975 286 516 -64
2019-09-13 14:39:12 GMT 22.903608 57.701466 38,000 286 516 -64
2019-09-13 14:39:05 GMT 22.900116 57.715454 38,000 286 516 -64
2019-09-13 14:39:01 GMT 22.896423 57.730209 38,000 286 517 -128
2019-09-13 14:38:49 GMT 22.889921 57.755939 38,000 286 517 -64
2019-09-13 14:38:43 GMT 22.885685 57.772419 38,000 286 517 -64
2019-09-13 14:38:38 GMT 22.882507 57.784641 37,975 286 517 192
2019-09-13 14:38:35 GMT 22.879866 57.794903 37,950 286 517 192
2019-09-13 14:38:28 GMT 22.875629 57.811329 37,950 286 516 -192
2019-09-13 14:38:24 GMT 22.873901 57.818050 37,975 286 515 -384
2019-09-13 14:38:16 GMT 22.868740 57.838184 38,075 286 514 -1088
2019-09-13 14:38:13 GMT 22.866598 57.846630 38,150 286 514 -1152
2019-09-13 14:38:05 GMT 22.861851 57.865448 38,325 286 512 -1664
2019-09-13 14:38:02 GMT 22.859665 57.874130 38,425 286 510 -1600
2019-09-13 14:37:55 GMT 22.855288 57.891132 38,600 286 510 -1600
2019-09-13 14:37:52 GMT 22.852844 57.900745 38,700 286 509 -1472
2019-09-13 14:37:44 GMT 22.847626 57.920872 38,875 286 509 -1408
2019-09-13 14:37:41 GMT 22.846395 57.925568 38,925 286 509 -1344
2019-09-13 14:37:34 GMT 22.841537 57.944443 39,075 286 509 -1152
2019-09-13 14:37:31 GMT 22.839600 57.952068 39,150 286 510 -1088
2019-09-13 14:37:20 GMT 22.833115 57.977451 39,325 286 511 -1152
2019-09-13 14:37:12 GMT 22.827496 57.999371 39,450 286 511 -1088
2019-09-13 14:37:09 GMT 22.825882 58.005566 39,500 286 511 -1088
2019-09-13 14:37:01 GMT 22.820885 58.025005 39,650 286 510 -1024
2019-09-13 14:36:57 GMT 22.818975 58.032379 39,675 286 510 -704
2019-09-13 14:36:49 GMT 22.812836 58.055702 39,750 286 509 -384
2019-09-13 14:36:37 GMT 22.806061 58.081169 39,850 286 508 -768
2019-09-13 14:36:28 GMT 22.799332 58.107090 39,950 286 506 -320
2019-09-13 14:36:17 GMT 22.792374 58.133957 39,975 286 507 -64
2019-09-13 14:36:05 GMT 22.785599 58.160095 40,000 286 507 -64
2019-09-13 14:35:54 GMT 22.776672 58.194630 40,000 286 508 -64
2019-09-13 14:35:42 GMT 22.770126 58.220097 39,975 286 508 0
2019-09-13 14:35:31 GMT 22.764084 58.243118 40,000 286 508 0
2019-09-13 14:35:22 GMT 22.757721 58.267590 39,975 286 508 0
2019-09-13 14:35:10 GMT 22.749390 58.299400 39,975 286 508 0
2019-09-13 14:34:59 GMT 22.738907 58.339500 40,000 286 509 -64
2019-09-13 14:34:39 GMT 22.727734 58.382416 40,000 286 510 0
2019-09-13 14:34:26 GMT 22.721355 58.406933 39,975 286 510 0
2019-09-13 14:34:14 GMT 22.714600 58.432735 40,000 286 511 -64
We lost coverage of the aircraft here for a total of 81 minutes
2019-09-13 13:13:43 GMT 18.115860 69.891838 39,975 296 542 0
2019-09-13 13:13:39 GMT 18.111237 69.901764 40,000 296 542 -64
2019-09-13 13:13:18 GMT 18.088152 69.951279 40,000 296 543 0
2019-09-13 13:13:15 GMT 18.084732 69.958626 40,000 296 543 0
2019-09-13 13:13:07 GMT 18.074799 69.979973 40,000 296 543 0
2019-09-13 13:12:23 GMT 18.027401 70.081688 39,975 297 544 64
2019-09-13 13:12:16 GMT 18.019859 70.097824 39,975 297 545 64
2019-09-13 13:12:08 GMT 18.010208 70.118507 39,975 297 545 0
2019-09-13 13:11:57 GMT 17.998169 70.144188 40,000 297 546 -64
2019-09-13 13:10:24 GMT 17.894577 70.365555 39,975 297 547 64
2019-09-13 13:08:20 GMT 17.754227 70.664062 39,975 297 546 0
2019-09-13 13:08:05 GMT 17.739716 70.694901 39,975 297 546 0
2019-09-13 13:07:56 GMT 17.728628 70.718407 39,975 297 547 -64
2019-09-13 13:07:43 GMT 17.714127 70.749062 39,975 297 547 -64
2019-09-13 13:07:34 GMT 17.702682 70.773300 40,000 297 547 -64
2019-09-13 13:07:21 GMT 17.689804 70.800606 39,975 297 546 -64
2019-09-13 13:07:10 GMT 17.677322 70.826927 40,000 297 546 0
2019-09-13 13:06:35 GMT 17.637897 70.910027 39,975 297 544 0
2019-09-13 13:06:24 GMT 17.626026 70.935043 40,000 297 544 0
2019-09-13 13:05:18 GMT 17.552521 71.089981 40,000 297 542 64
2019-09-13 13:05:12 GMT 17.545074 71.105736 39,975 297 542 0
2019-09-13 13:05:02 GMT 17.534693 71.127594 39,975 297 542 0
2019-09-13 13:04:51 GMT 17.521362 71.155602 40,000 297 543 -64
2019-09-13 13:04:40 GMT 17.509735 71.180084 40,000 297 543 0
2019-09-13 13:04:30 GMT 17.497963 71.204796 40,000 297 543 0
2019-09-13 13:03:57 GMT 17.461838 71.280716 39,975 297 544 -64
2019-09-13 13:03:52 GMT 17.456251 71.292542 40,000 297 544 -64
2019-09-13 13:03:44 GMT 17.446337 71.313286 40,000 297 545 -64
2019-09-13 13:02:58 GMT 17.394941 71.420792 40,000 297 544 -64
2019-09-13 13:02:22 GMT 17.354095 71.506393 39,975 297 545 0
2019-09-13 13:01:29 GMT 17.293625 71.632835 40,025 297 551 -256
2019-09-13 13:01:24 GMT 17.288132 71.644302 40,025 297 552 0
2019-09-13 13:01:04 GMT 17.265619 71.691284 39,975 297 551 -64
2019-09-13 13:00:56 GMT 17.256029 71.711342 40,000 297 551 -128
2019-09-13 13:00:28 GMT 17.224319 71.777245 40,000 297 550 -64
2019-09-13 13:00:13 GMT 17.207657 71.811890 40,000 297 549 0
2019-09-13 13:00:05 GMT 17.197979 71.832001 39,975 297 548 0
2019-09-13 12:59:46 GMT 17.175915 71.877808 39,975 297 546 0
2019-09-13 12:59:42 GMT 17.171494 71.887016 39,975 297 546 0
2019-09-13 12:59:30 GMT 17.158409 71.914101 40,000 297 546 -64
2019-09-13 12:59:17 GMT 17.143112 71.945847 40,000 297 544 0
2019-09-13 12:58:51 GMT 17.114046 72.006210 39,975 297 544 -64
2019-09-13 12:58:41 GMT 17.103432 72.028229 39,975 297 544 -64
2019-09-13 12:58:29 GMT 17.089514 72.057411 40,000 297 543 -64
2019-09-13 12:58:21 GMT 17.079895 72.077927 40,000 296 543 -64
2019-09-13 12:58:09 GMT 17.067633 72.104057 40,000 297 542 0
2019-09-13 12:57:40 GMT 17.035000 72.173508 39,975 297 538 -64
2019-09-13 12:57:32 GMT 17.026108 72.192413 39,975 297 538 0
2019-09-13 12:57:02 GMT 16.994034 72.260468 40,000 297 533 192
2019-09-13 12:56:58 GMT 16.988937 72.271339 40,000 297 533 192
2019-09-13 12:56:40 GMT 16.969687 72.312256 39,900 297 533 384
2019-09-13 12:56:19 GMT 16.947063 72.360275 39,750 297 533 512
2019-09-13 12:56:12 GMT 16.939009 72.377388 39,675 297 533 512
2019-09-13 12:55:58 GMT 16.924072 72.409012 39,575 297 533 448
2019-09-13 12:55:48 GMT 16.913500 72.431442 39,500 297 533 448
2019-09-13 12:55:16 GMT 16.879562 72.503342 39,300 297 531 448
2019-09-13 12:54:49 GMT 16.849274 72.567444 39,075 297 530 512
2019-09-13 12:54:15 GMT 16.812653 72.644783 38,775 297 529 704
2019-09-13 12:52:12 GMT 16.679169 72.926575 38,000 297 526 0
2019-09-13 12:50:43 GMT 16.582214 73.129288 37,975 298 524 0
2019-09-13 12:50:30 GMT 16.568546 73.156883 37,975 298 524 0
2019-09-13 12:50:19 GMT 16.556625 73.180893 37,975 298 525 -64
2019-09-13 12:50:06 GMT 16.541519 73.211494 37,975 298 525 -64
2019-09-13 12:48:58 GMT 16.464224 73.367584 37,975 298 525 -64
2019-09-13 12:47:36 GMT 16.374710 73.547928 37,975 298 525 0
2019-09-13 12:45:42 GMT 16.250130 73.806107 37,975 297 525 0
2019-09-13 12:45:29 GMT 16.235931 73.835480 38,025 297 525 -128
2019-09-13 12:45:16 GMT 16.222275 73.863731 37,975 297 526 0
2019-09-13 12:45:09 GMT 16.212250 73.884552 38,000 297 526 0
2019-09-13 12:45:02 GMT 16.206161 73.897179 37,975 297 525 -64
2019-09-13 12:44:55 GMT 16.198700 73.912544 37,975 297 525 -64
2019-09-13 12:44:45 GMT 16.187052 73.936714 37,975 297 526 -64
2019-09-13 12:44:30 GMT 16.171129 73.969719 37,975 297 523 -64
2019-09-13 12:43:26 GMT 16.102467 74.112297 37,975 297 522 -64
2019-09-13 12:43:21 GMT 16.096182 74.125343 37,975 297 522 -64
We lost coverage of the aircraft here for a total of 8 minutes
2019-09-13 12:35:05 GMT 15.533365 75.215836 37,975 300 526 0
2019-09-13 12:34:52 GMT 15.518143 75.243774 37,975 300 527 0
2019-09-13 12:34:43 GMT 15.507843 75.262711 37,975 300 528 -64
2019-09-13 12:34:36 GMT 15.499288 75.278366 37,975 300 528 -64
2019-09-13 12:32:19 GMT 15.334351 75.580009 38,000 300 528 -64
2019-09-13 12:32:09 GMT 15.322157 75.602219 38,000 300 528 0
2019-09-13 12:31:59 GMT 15.309723 75.624870 38,000 300 528 0
2019-09-13 12:31:49 GMT 15.297409 75.647278 37,975 300 528 0
2019-09-13 12:31:37 GMT 15.284077 75.671669 38,000 300 527 64
2019-09-13 12:31:27 GMT 15.271912 75.693825 37,975 300 526 0
2019-09-13 12:31:12 GMT 15.254005 75.726456 37,975 300 526 -64
2019-09-13 12:31:07 GMT 15.247301 75.738670 38,000 300 526 -64
2019-09-13 12:30:56 GMT 15.233963 75.762970 38,000 300 525 -64
2019-09-13 12:30:45 GMT 15.221695 75.785233 38,000 300 525 0
2019-09-13 12:30:35 GMT 15.209035 75.808167 37,975 300 525 64
2019-09-13 12:30:23 GMT 15.194000 75.835487 37,975 300 526 0
2019-09-13 12:30:14 GMT 15.184387 75.853027 38,000 300 527 -64
2019-09-13 12:30:05 GMT 15.171890 75.875916 38,000 300 528 -64
2019-09-13 12:29:53 GMT 15.158615 75.900108 37,975 300 529 64
2019-09-13 12:29:41 GMT 15.144058 75.926514 38,000 300 530 -64
2019-09-13 12:29:33 GMT 15.134458 75.943977 38,000 300 530 -64
2019-09-13 12:29:22 GMT 15.120987 75.968483 38,000 300 531 0
2019-09-13 12:29:11 GMT 15.106384 75.994934 37,975 300 531 0
2019-09-13 12:29:02 GMT 15.096565 76.012833 37,975 300 531 -64
2019-09-13 12:28:52 GMT 15.083771 76.036041 37,975 300 532 0
2019-09-13 12:28:41 GMT 15.070728 76.059677 38,000 300 532 -64
2019-09-13 12:28:31 GMT 15.057953 76.082878 37,975 300 532 0
2019-09-13 12:28:20 GMT 15.045637 76.105240 38,000 300 532 -64
2019-09-13 12:28:10 GMT 15.033051 76.127975 37,975 300 531 -64
2019-09-13 12:27:59 GMT 15.020219 76.151192 38,000 300 531 0
2019-09-13 12:27:48 GMT 15.006912 76.175247 37,975 300 531 0
2019-09-13 12:27:39 GMT 14.995010 76.196838 38,000 300 531 -64
2019-09-13 12:27:27 GMT 14.981255 76.221771 38,000 300 531 -64
2019-09-13 12:27:17 GMT 14.969058 76.243790 37,975 300 530 0
2019-09-13 12:27:08 GMT 14.956629 76.266258 37,975 300 530 0
2019-09-13 12:26:57 GMT 14.944336 76.288483 37,975 300 530 0
2019-09-13 12:26:47 GMT 14.931702 76.311371 37,975 300 530 0
2019-09-13 12:26:36 GMT 14.918518 76.335175 37,975 300 530 -64
2019-09-13 12:26:25 GMT 14.905980 76.357826 37,975 300 530 -64
2019-09-13 12:26:15 GMT 14.893158 76.381004 38,000 300 530 -64
2019-09-13 12:26:04 GMT 14.879864 76.404961 38,000 300 530 -64
2019-09-13 12:25:55 GMT 14.867523 76.427208 37,975 300 530 -64
2019-09-13 12:25:44 GMT 14.855392 76.449181 38,000 300 529 -64
2019-09-13 12:25:33 GMT 14.842855 76.471756 38,000 300 528 -64
2019-09-13 12:25:23 GMT 14.829774 76.495399 38,000 300 527 -64
2019-09-13 12:25:13 GMT 14.817624 76.517273 38,000 300 527 0
2019-09-13 12:25:00 GMT 14.801788 76.545822 37,975 300 525 64
2019-09-13 12:24:52 GMT 14.792358 76.562820 37,975 300 525 0
2019-09-13 12:24:42 GMT 14.779963 76.585304 38,000 300 525 0
2019-09-13 12:24:32 GMT 14.767502 76.607758 37,975 300 526 0
2019-09-13 12:24:25 GMT 14.758409 76.624100 38,000 300 526 0
2019-09-13 12:24:20 GMT 14.754313 76.631516 38,000 300 526 0
2019-09-13 12:24:17 GMT 14.750682 76.638069 37,975 300 526 0
2019-09-13 12:24:11 GMT 14.742442 76.652908 37,975 300 527 0
2019-09-13 12:24:01 GMT 14.725544 76.683464 37,975 300 526 -64
2019-09-13 12:23:50 GMT 14.717422 76.698067 38,000 300 526 -64
2019-09-13 12:23:39 GMT 14.704502 76.721436 37,975 300 526 0
2019-09-13 12:23:29 GMT 14.692119 76.743690 37,975 300 526 64
2019-09-13 12:23:18 GMT 14.679153 76.767014 37,975 300 526 -64
2019-09-13 12:23:09 GMT 14.666841 76.789040 38,000 300 526 -128
2019-09-13 12:22:47 GMT 14.634247 76.847610 38,000 300 524 -64
2019-09-13 12:22:32 GMT 14.621704 76.870155 38,000 300 522 192
2019-09-13 12:22:21 GMT 14.609256 76.892349 37,925 300 520 448
2019-09-13 12:22:10 GMT 14.596966 76.914223 37,850 300 520 576
2019-09-13 12:22:00 GMT 14.584211 76.937012 37,750 300 520 512
2019-09-13 12:21:49 GMT 14.571396 76.959984 37,675 300 519 512
2019-09-13 12:21:40 GMT 14.559305 76.981682 37,575 300 518 640
2019-09-13 12:21:29 GMT 14.547226 77.003319 37,475 300 518 768
2019-09-13 12:21:19 GMT 14.534214 77.026688 37,325 300 517 768
2019-09-13 12:21:11 GMT 14.524979 77.043190 37,225 300 517 768
2019-09-13 12:21:08 GMT 14.521784 77.048950 37,200 300 517 704
2019-09-13 12:20:57 GMT 14.509588 77.070778 37,075 300 517 640
2019-09-13 12:20:48 GMT 14.497158 77.092995 36,975 300 516 704
2019-09-13 12:20:36 GMT 14.483734 77.117065 36,850 300 515 768
2019-09-13 12:20:27 GMT 14.472160 77.137711 36,725 300 514 640
2019-09-13 12:20:15 GMT 14.459544 77.160255 36,625 300 514 896
2019-09-13 12:20:05 GMT 14.447754 77.181274 36,450 300 514 832
2019-09-13 12:19:55 GMT 14.435211 77.203766 36,300 301 513 1280
2019-09-13 12:19:45 GMT 14.422907 77.225647 36,100 300 514 1088
2019-09-13 12:19:35 GMT 14.410757 77.247330 35,950 300 515 896
2019-09-13 12:19:23 GMT 14.397766 77.270493 35,800 300 514 896
2019-09-13 12:19:16 GMT 14.387667 77.288528 35,675 300 514 960
2019-09-13 12:19:13 GMT 14.385406 77.292557 35,650 300 514 960
2019-09-13 12:19:03 GMT 14.373422 77.314018 35,475 300 514 1088
2019-09-13 12:18:53 GMT 14.361040 77.336090 35,325 300 514 1152
2019-09-13 12:18:43 GMT 14.348511 77.358383 35,100 300 514 1152
2019-09-13 12:18:32 GMT 14.336380 77.380028 34,925 300 514 1216
2019-09-13 12:18:21 GMT 14.323658 77.402779 34,700 300 515 1216
2019-09-13 12:18:11 GMT 14.311615 77.424255 34,500 300 515 1216
2019-09-13 12:18:00 GMT 14.298613 77.447449 34,300 300 515 1280
2019-09-13 12:17:50 GMT 14.286118 77.469810 33,875 300 516 1344
2019-09-13 12:17:40 GMT 14.274399 77.490692 33,875 300 516 1344
2019-09-13 12:17:30 GMT 14.261837 77.513077 33,675 300 516 1088
2019-09-13 12:17:19 GMT 14.249084 77.535866 33,500 300 515 1088
2019-09-13 12:17:08 GMT 14.236559 77.558228 33,350 300 515 1024
2019-09-13 12:16:59 GMT 14.224503 77.579674 33,175 300 514 1216
2019-09-13 12:16:48 GMT 14.212326 77.601311 32,950 300 514 1472
2019-09-13 12:16:38 GMT 14.199417 77.624229 32,700 300 515 1664
2019-09-13 12:16:26 GMT 14.186608 77.647034 32,400 300 517 1728
2019-09-13 12:16:17 GMT 14.174698 77.668228 32,150 301 519 1728
2019-09-13 12:16:06 GMT 14.161652 77.691383 31,850 301 521 1664
2019-09-13 12:15:55 GMT 14.148854 77.713959 31,625 301 523 1216
2019-09-13 12:15:46 GMT 14.136704 77.735497 31,450 301 522 1152
2019-09-13 12:15:34 GMT 14.123623 77.758774 31,275 301 521 960
2019-09-13 12:15:25 GMT 14.111240 77.780701 31,125 301 521 1024
2019-09-13 12:15:14 GMT 14.099030 77.802383 30,950 301 521 960
2019-09-13 12:15:03 GMT 14.086335 77.824883 30,800 301 519 960
2019-09-13 12:14:54 GMT 14.073579 77.847580 30,650 301 518 960
2019-09-13 12:14:43 GMT 14.060898 77.870003 30,500 300 518 960
2019-09-13 12:14:33 GMT 14.048534 77.891960 30,350 300 516 896
2019-09-13 12:14:22 GMT 14.036058 77.914078 30,200 301 515 896
2019-09-13 12:14:12 GMT 14.023270 77.936775 30,050 300 514 768
2019-09-13 12:14:01 GMT 14.010967 77.958549 29,925 301 513 896
2019-09-13 12:13:51 GMT 13.998118 77.981346 29,750 301 511 896
2019-09-13 12:13:40 GMT 13.986145 78.002602 29,600 300 510 1088
2019-09-13 12:13:29 GMT 13.973958 78.024231 29,450 301 509 896
2019-09-13 12:13:19 GMT 13.961105 78.047112 29,300 300 508 960
2019-09-13 12:13:08 GMT 13.949192 78.068222 29,150 300 506 768
2019-09-13 12:12:58 GMT 13.936809 78.090286 29,000 300 504 1024
2019-09-13 12:12:47 GMT 13.924380 78.112312 28,825 301 504 1280
2019-09-13 12:12:36 GMT 13.911717 78.134720 28,600 301 504 1216
2019-09-13 12:12:27 GMT 13.899902 78.155746 28,450 300 504 832
2019-09-13 12:12:17 GMT 13.885043 78.182083 28,325 300 503 704
2019-09-13 12:12:06 GMT 13.875366 78.199219 28,200 301 501 896
2019-09-13 12:11:55 GMT 13.863052 78.221046 28,050 301 499 704
2019-09-13 12:11:45 GMT 13.851106 78.242172 27,950 301 496 640
2019-09-13 12:11:41 GMT 13.845428 78.252159 27,900 301 496 704
2019-09-13 12:11:34 GMT 13.838863 78.263809 27,825 301 494 832
2019-09-13 12:11:25 GMT 13.828629 78.281898 27,700 301 493 896
2019-09-13 12:11:22 GMT 13.825424 78.287582 27,675 301 492 832
2019-09-13 12:11:12 GMT 13.814097 78.307610 27,550 301 491 896
2019-09-13 12:11:05 GMT 13.804740 78.324181 27,425 301 490 960
2019-09-13 12:11:02 GMT 13.802459 78.328232 27,400 301 490 960
2019-09-13 12:10:57 GMT 13.795944 78.339714 27,200 301 490 960
2019-09-13 12:10:53 GMT 13.792511 78.345734 27,275 301 488 960
2019-09-13 12:10:48 GMT 13.786492 78.356369 27,175 301 488 960
2019-09-13 12:10:44 GMT 13.780701 78.366661 27,100 301 488 960
2019-09-13 12:10:38 GMT 13.775482 78.375847 27,050 301 487 896
2019-09-13 12:10:33 GMT 13.768802 78.387695 26,950 301 486 896
2019-09-13 12:10:28 GMT 13.764130 78.395927 26,900 301 486 896
2019-09-13 12:10:25 GMT 13.759644 78.403885 26,850 301 485 896
2019-09-13 12:10:22 GMT 13.756897 78.408669 26,825 301 485 960
2019-09-13 12:10:15 GMT 13.749481 78.421829 26,725 301 484 1088
2019-09-13 12:10:12 GMT 13.733841 78.449516 26,475 301 482 960
2019-09-13 12:10:02 GMT 13.733841 78.449516 26,500 301 482 960
2019-09-13 12:09:56 GMT 13.727875 78.460045 26,425 301 482 960
2019-09-13 12:09:52 GMT 13.721738 78.470955 26,325 301 481 896
2019-09-13 12:09:41 GMT 13.710434 78.490921 26,200 301 479 768
2019-09-13 12:09:30 GMT 13.698927 78.511192 26,075 301 477 640
2019-09-13 12:09:20 GMT 13.687271 78.531738 26,000 301 474 512
2019-09-13 12:09:09 GMT 13.675465 78.552582 25,925 301 470 512
2019-09-13 12:09:04 GMT 13.669134 78.563759 25,875 301 468 448
2019-09-13 12:09:00 GMT 13.664758 78.571472 25,850 301 467 384
2019-09-13 12:08:57 GMT 13.661591 78.577011 25,850 301 466 384
2019-09-13 12:08:49 GMT 13.653122 78.591927 25,800 301 463 384
2019-09-13 12:08:38 GMT 13.640900 78.613617 25,725 301 459 384
2019-09-13 12:08:28 GMT 13.629364 78.633934 25,650 301 456 448
2019-09-13 12:08:16 GMT 13.617188 78.655197 25,575 301 452 448
2019-09-13 12:08:08 GMT 13.608719 78.669968 25,525 300 450 448
2019-09-13 12:07:57 GMT 13.598607 78.689285 25,450 297 446 512
2019-09-13 12:07:52 GMT 13.594045 78.698776 25,425 296 445 512
2019-09-13 12:07:46 GMT 13.589017 78.709862 25,375 294 442 512
2019-09-13 12:07:43 GMT 13.586609 78.715431 25,350 294 441 512
2019-09-13 12:07:35 GMT 13.579697 78.732903 25,300 292 439 448
2019-09-13 12:07:32 GMT 13.577454 78.739159 25,275 290 437 448
2019-09-13 12:07:23 GMT 13.571560 78.756989 25,225 288 434 448
2019-09-13 12:07:16 GMT 13.567650 78.769562 25,175 288 431 512
2019-09-13 12:07:12 GMT 13.564950 78.778137 25,125 288 430 512
2019-09-13 12:07:05 GMT 13.561319 78.789803 25,075 288 428 576
2019-09-13 12:07:00 GMT 13.557495 78.801949 25,025 288 426 768
2019-09-13 12:06:54 GMT 13.554840 78.810425 24,950 288 425 1088
2019-09-13 12:06:50 GMT 13.551636 78.820641 24,875 288 425 1088
2019-09-13 12:06:44 GMT 13.548610 78.830231 24,800 288 424 1024
2019-09-13 12:06:36 GMT 13.543716 78.845749 24,675 288 422 1024
2019-09-13 12:06:33 GMT 13.542114 78.850723 24,625 289 422 1088
2019-09-13 12:06:28 GMT 13.538727 78.861427 24,525 289 421 1088
2019-09-13 12:06:24 GMT 13.536026 78.869759 24,450 289 421 1088
2019-09-13 12:06:16 GMT 13.531339 78.884392 24,350 289 420 960
2019-09-13 12:06:13 GMT 13.529663 78.889503 24,300 289 419 832
2019-09-13 12:06:07 GMT 13.525287 78.902893 24,200 289 417 896
2019-09-13 12:06:02 GMT 13.523254 78.909111 24,150 289 417 1024
2019-09-13 12:05:55 GMT 13.518025 78.925056 24,025 289 416 1088
2019-09-13 12:05:52 GMT 13.516754 78.929001 23,975 289 415 1152
2019-09-13 12:05:44 GMT 13.511415 78.945251 23,825 289 414 1152
2019-09-13 12:05:41 GMT 13.510344 78.948624 23,800 289 414 1216
2019-09-13 12:05:31 GMT 13.504074 78.967834 23,600 289 412 1152
2019-09-13 12:05:20 GMT 13.497635 78.987701 23,425 289 411 1152
2019-09-13 12:05:11 GMT 13.491397 79.006973 23,225 289 410 1152
2019-09-13 12:04:59 GMT 13.484554 79.028419 23,050 289 408 960
2019-09-13 12:04:48 GMT 13.477990 79.048988 22,900 289 405 896
2019-09-13 12:04:38 GMT 13.472351 79.066666 22,750 289 402 1152
2019-09-13 12:04:29 GMT 13.466766 79.084091 22,575 289 400 1280
2019-09-13 12:04:18 GMT 13.460999 79.102333 22,375 288 399 1088
2019-09-13 12:04:15 GMT 13.459509 79.107010 22,350 288 399 1088
2019-09-13 12:04:08 GMT 13.454993 79.121414 22,200 288 396 1216
2019-09-13 12:04:04 GMT 13.452484 79.129501 22,100 288 396 1280
2019-09-13 12:03:53 GMT 13.444891 79.153648 21,925 288 395 1408
2019-09-13 12:03:47 GMT 13.443169 79.158997 21,775 288 394 1344
2019-09-13 12:03:44 GMT 13.441315 79.164879 21,700 288 394 1344
2019-09-13 12:03:39 GMT 13.438793 79.172928 21,600 288 394 1408
2019-09-13 12:03:33 GMT 13.435115 79.184631 21,450 288 392 1408
2019-09-13 12:03:26 GMT 13.431298 79.196678 21,325 288 391 1344
2019-09-13 12:03:22 GMT 13.429064 79.203766 21,225 288 391 1344
2019-09-13 12:03:15 GMT 13.425619 79.214699 21,100 288 390 1344
2019-09-13 12:03:11 GMT 13.423012 79.222847 21,000 289 390 1408
2019-09-13 12:03:05 GMT 13.419708 79.233208 20,875 289 389 1472
2019-09-13 12:03:00 GMT 13.416727 79.242508 20,750 289 388 1408
2019-09-13 12:02:54 GMT 13.413795 79.251610 20,650 289 387 1472
2019-09-13 12:02:49 GMT 13.410722 79.261009 20,525 289 387 1536
2019-09-13 12:02:43 GMT 13.408022 79.269394 20,400 289 386 1472
2019-09-13 12:02:37 GMT 13.404531 79.280190 20,275 289 385 1536
2019-09-13 12:02:33 GMT 13.401970 79.288185 20,150 289 385 1536
2019-09-13 12:02:27 GMT 13.398293 79.299316 20,000 289 385 1536
2019-09-13 12:02:21 GMT 13.395126 79.308838 19,875 289 384 1472
2019-09-13 12:02:16 GMT 13.392194 79.317627 19,750 290 384 1792
2019-09-13 12:02:13 GMT 13.389908 79.324364 19,625 290 384 2368
2019-09-13 12:02:06 GMT 13.385584 79.336952 19,325 290 387 2816
2019-09-13 12:02:02 GMT 13.384001 79.341476 19,225 290 388 2752
2019-09-13 12:01:55 GMT 13.378922 79.355904 18,925 290 391 1664
2019-09-13 12:01:52 GMT 13.377457 79.360123 18,875 290 391 1536
2019-09-13 12:01:44 GMT 13.372317 79.374580 18,675 290 389 1344
2019-09-13 12:01:41 GMT 13.368713 79.384789 18,550 291 388 1344
2019-09-13 12:01:33 GMT 13.365427 79.393997 18,450 291 387 1536
2019-09-13 12:01:20 GMT 13.358322 79.413773 18,175 291 385 1600
2019-09-13 12:01:10 GMT 13.351694 79.432114 17,900 291 384 1472
2019-09-13 12:00:58 GMT 13.344851 79.450859 17,675 291 382 1536
2019-09-13 12:00:48 GMT 13.338089 79.469322 17,400 291 380 1600
2019-09-13 12:00:38 GMT 13.331071 79.488014 17,125 292 378 1664
2019-09-13 12:00:27 GMT 13.323486 79.505928 16,850 297 377 1536
2019-09-13 12:00:16 GMT 13.314423 79.522881 16,600 301 375 1536
2019-09-13 12:00:08 GMT 13.306961 79.535713 16,375 301 374 1728
2019-09-13 12:00:05 GMT 13.304810 79.539360 16,325 301 373 1728
2019-09-13 11:59:57 GMT 13.298264 79.550629 16,100 301 372 1792
2019-09-13 11:59:54 GMT 13.295059 79.556076 16,000 301 371 1728
2019-09-13 11:59:47 GMT 13.288616 79.567131 15,825 301 370 1728
2019-09-13 11:59:42 GMT 13.285172 79.573029 15,725 301 369 1728
2019-09-13 11:59:35 GMT 13.279631 79.582550 15,550 301 368 1728
2019-09-13 11:59:32 GMT 13.276140 79.588524 15,425 301 368 1792
2019-09-13 11:59:22 GMT 13.266503 79.604568 15,125 303 366 1984
2019-09-13 11:59:14 GMT 13.260405 79.613823 14,925 306 366 2048
2019-09-13 11:59:11 GMT 13.255371 79.620621 14,775 309 367 1984
2019-09-13 11:59:04 GMT 13.249969 79.627342 14,625 311 366 1792
2019-09-13 11:59:00 GMT 13.243561 79.635017 14,475 311 366 1600
2019-09-13 11:58:55 GMT 13.238525 79.641121 14,350 311 364 1536
2019-09-13 11:58:48 GMT 13.230798 79.650444 14,200 311 361 1536
2019-09-13 11:58:44 GMT 13.227219 79.654762 14,100 311 360 1792
2019-09-13 11:58:38 GMT 13.219904 79.663506 13,925 311 359 1792
2019-09-13 11:58:27 GMT 13.208359 79.677299 13,650 311 356 1536
2019-09-13 11:58:15 GMT 13.196960 79.690895 13,400 310 352 1664
2019-09-13 11:58:04 GMT 13.185333 79.706139 13,100 305 348 1600
2019-09-13 11:57:54 GMT 13.176052 79.721329 12,825 300 343 1600
2019-09-13 11:57:44 GMT 13.167719 79.736313 12,575 300 339 1664
2019-09-13 11:57:33 GMT 13.159744 79.751038 12,225 299 337 2688
2019-09-13 11:57:22 GMT 13.151138 79.766991 11,700 299 339 2880
2019-09-13 11:57:11 GMT 13.143036 79.781960 11,375 299 337 1152
2019-09-13 11:57:00 GMT 13.134621 79.797607 11,200 299 328 896
2019-09-13 11:56:48 GMT 13.126986 79.811913 11,050 299 318 1024
2019-09-13 11:56:38 GMT 13.119584 79.825844 10,875 299 310 1088
2019-09-13 11:56:28 GMT 13.112228 79.839729 10,700 299 300 1024
2019-09-13 11:56:17 GMT 13.105133 79.852798 10,550 301 291 960
2019-09-13 11:56:05 GMT 13.097100 79.866127 10,375 304 281 1024
2019-09-13 11:55:55 GMT 13.089512 79.877785 10,100 304 274 2368
2019-09-13 11:55:43 GMT 13.082156 79.889015 9,700 304 273 2304
2019-09-13 11:55:32 GMT 13.074149 79.901299 9,300 304 270 2240
2019-09-13 11:55:23 GMT 13.066772 79.912468 8,950 304 270 2304
2019-09-13 11:55:12 GMT 13.059020 79.924187 8,525 305 267 2560
2019-09-13 11:55:01 GMT 13.051575 79.935432 8,100 305 267 2560
2019-09-13 11:54:50 GMT 13.044123 79.946640 7,675 304 266 2496
2019-09-13 11:54:39 GMT 13.036535 79.958115 7,250 304 264 2560
2019-09-13 11:54:27 GMT 13.029180 79.969383 6,800 304 263 2688
2019-09-13 11:54:16 GMT 13.021729 79.980659 6,350 305 261 2432
2019-09-13 11:54:06 GMT 13.014144 79.992035 5,950 303 259 2368
2019-09-13 11:53:56 GMT 13.008408 80.003197 5,525 293 257 2944
2019-09-13 11:53:45 GMT 13.003693 80.016266 5,025 290 258 2944
2019-09-13 11:53:34 GMT 12.999298 80.028770 4,500 290 260 3264
2019-09-13 11:53:23 GMT 12.995104 80.040848 3,975 290 262 3264
2019-09-13 11:53:11 GMT 12.990495 80.054291 3,475 290 263 2560
2019-09-13 11:53:01 GMT 12.986212 80.066673 3,100 290 258 1600
2019-09-13 11:52:49 GMT 12.981697 80.079781 2,900 290 243 1152
2019-09-13 11:52:39 GMT 12.977921 80.090805 2,725 290 232 1024
2019-09-13 11:52:29 GMT 12.974121 80.101555 2,550 290 219 1280
2019-09-13 11:52:18 GMT 12.971649 80.112968 2,300 270 205 1088
2019-09-13 11:52:07 GMT 12.973526 80.122482 2,075 251 190 1984
2019-09-13 11:51:56 GMT 12.976868 80.131912 1,650 251 187 2624
We lost coverage of the aircraft here for a total of 101 minutes
2019-09-13 10:11:22 GMT 13.006165 80.211746 775 250 163 -896
2019-09-13 10:11:13 GMT 13.008511 80.218025 875 250 162 -960
2019-09-13 10:10:53 GMT 13.013947 80.232635 1,150 250 173 -1024
2019-09-13 10:10:45 GMT 13.016373 80.238976 1,275 249 178 -1024
2019-09-13 10:10:36 GMT 13.019171 80.246452 1,425 250 186 -1024
2019-09-13 10:10:25 GMT 13.022616 80.255653 1,600 250 192 -1088
2019-09-13 10:10:13 GMT 13.026294 80.265579 1,800 250 198 -1216
2019-09-13 10:10:03 GMT 13.029739 80.274872 1,975 250 197 -1088
2019-09-13 10:09:49 GMT 13.034161 80.286636 2,125 249 197 -512
2019-09-13 10:09:41 GMT 13.036768 80.293724 2,200 250 200 -576
2019-09-13 10:09:30 GMT 13.040543 80.303947 2,300 250 206 -576
2019-09-13 10:09:18 GMT 13.044342 80.313942 2,375 249 215 -576
2019-09-13 10:09:03 GMT 13.050064 80.328575 2,525 248 220 -448
2019-09-13 10:08:51 GMT 13.054871 80.339890 2,575 247 229 -512
2019-09-13 10:08:45 GMT 13.057297 80.346001 2,625 251 232 -576
2019-09-13 10:08:35 GMT 13.060318 80.357796 2,725 265 238 -640
2019-09-13 10:08:25 GMT 13.059128 80.369583 2,850 284 243 -1088
2019-09-13 10:08:14 GMT 13.056087 80.382095 3,025 284 245 -896
2019-09-13 10:08:02 GMT 13.052948 80.394966 3,150 284 250 -512
2019-09-13 10:07:51 GMT 13.049849 80.407921 3,225 284 256 -576
2019-09-13 10:07:40 GMT 13.046814 80.420868 3,375 284 258 -1344
2019-09-13 10:07:09 GMT 13.038025 80.458611 4,250 285 255 -1728
2019-09-13 10:07:06 GMT 13.037155 80.462112 4,325 285 255 -1728
2019-09-13 10:06:56 GMT 13.034271 80.472198 4,525 290 260 -960
2019-09-13 10:06:45 GMT 13.029236 80.484322 4,650 298 266 -832
2019-09-13 10:06:19 GMT 13.012619 80.514915 4,975 300 276 -640
2019-09-13 10:06:00 GMT 13.000457 80.537064 5,175 300 284 -704
2019-09-13 10:05:43 GMT 12.989136 80.557487 5,375 300 292 -768
2019-09-13 10:05:40 GMT 12.987190 80.561012 5,400 300 294 -832
2019-09-13 10:05:26 GMT 12.977875 80.577850 5,575 300 300 -832
2019-09-13 10:05:19 GMT 12.973160 80.586327 5,650 300 304 -704
2019-09-13 10:05:04 GMT 12.962677 80.605125 5,825 300 312 -1088
2019-09-13 10:04:49 GMT 12.950926 80.626205 6,200 300 314 -1664
2019-09-13 10:04:44 GMT 12.948179 80.631165 6,300 300 314 -1600
2019-09-13 10:04:33 GMT 12.940475 80.644997 6,475 300 314 -192
2019-09-13 10:04:07 GMT 12.920975 80.680038 6,500 300 316 -64
2019-09-13 10:03:47 GMT 12.906464 80.706184 6,475 300 334 64
2019-09-13 10:03:26 GMT 12.889896 80.735878 6,475 300 335 -64
2019-09-13 10:03:12 GMT 12.878998 80.755478 6,500 300 341 -512
2019-09-13 10:03:03 GMT 12.872159 80.767776 6,600 300 347 -1216
2019-09-13 10:02:55 GMT 12.865677 80.779396 6,800 300 348 -1920
2019-09-13 10:02:43 GMT 12.856705 80.795494 7,175 300 348 -2368
2019-09-13 10:02:33 GMT 12.848464 80.810272 7,550 300 348 -2112
2019-09-13 10:02:22 GMT 12.839805 80.825836 7,875 300 349 -2112
2019-09-13 10:02:11 GMT 12.830475 80.842751 8,250 300 350 -2112
2019-09-13 10:02:01 GMT 12.822235 80.857857 8,600 299 351 -2112
2019-09-13 10:01:49 GMT 12.813457 80.874023 8,950 299 352 -1984
2019-09-13 10:01:39 GMT 12.805298 80.889160 9,250 299 354 -1856
2019-09-13 10:01:28 GMT 12.796139 80.906166 9,575 299 357 -1792
2019-09-13 10:01:16 GMT 12.787720 80.921791 9,850 299 360 -1856
2019-09-13 10:01:05 GMT 12.778450 80.939072 10,200 299 363 -1856
2019-09-13 10:00:31 GMT 12.750379 80.991547 11,225 299 370 -1920
2019-09-13 10:00:22 GMT 12.743163 81.005135 11,475 299 372 -1920
2019-09-13 10:00:12 GMT 12.734597 81.021324 11,775 299 374 -1728
2019-09-13 10:00:01 GMT 12.725659 81.038284 12,050 299 378 -1536
2019-09-13 09:59:03 GMT 12.676128 81.133453 13,825 299 391 -1792
2019-09-13 09:58:52 GMT 12.666910 81.150848 14,075 299 396 -1472
We lost coverage of the aircraft here for a total of 95 minutes
2019-09-13 08:24:05 GMT 6.915161 93.722038 37,975 295 519 0
We lost coverage of the aircraft here for a total of 7 minutes
2019-09-13 08:17:05 GMT 6.479050 94.642471 37,975 300 519 0
2019-09-13 08:16:31 GMT 6.439664 94.713516 38,000 300 519 -64
2019-09-13 08:16:03 GMT 6.406891 94.772568 37,975 299 520 -64
2019-09-13 08:15:49 GMT 6.390656 94.801910 37,975 299 520 -64
2019-09-13 08:15:41 GMT 6.381614 94.818169 38,000 300 520 -64
2019-09-13 08:15:34 GMT 6.373420 94.832947 38,000 300 520 -64
2019-09-13 08:15:21 GMT 6.358151 94.860405 37,975 299 520 -64
2019-09-13 08:15:13 GMT 6.348907 94.877090 37,975 299 520 -64
2019-09-13 08:14:57 GMT 6.329568 94.911926 37,975 300 519 0
2019-09-13 08:14:50 GMT 6.322306 94.925003 38,000 300 519 -64
2019-09-13 08:14:40 GMT 6.309769 94.947571 37,975 300 519 -64
2019-09-13 08:14:29 GMT 6.297089 94.970291 38,000 300 519 0
2019-09-13 08:14:17 GMT 6.282690 94.996223 37,975 300 519 -64
2019-09-13 08:14:08 GMT 6.272355 95.014740 38,000 300 520 -64
2019-09-13 08:13:54 GMT 6.256027 95.044121 37,975 300 521 -64
2019-09-13 08:13:44 GMT 6.244424 95.065079 37,975 299 521 0
2019-09-13 08:13:33 GMT 6.232178 95.087364 37,975 299 522 0
2019-09-13 08:13:22 GMT 6.219239 95.110962 37,975 299 521 0
2019-09-13 08:13:11 GMT 6.206158 95.134689 38,000 299 521 0
2019-09-13 08:13:02 GMT 6.195328 95.154449 38,000 299 521 0
2019-09-13 08:12:49 GMT 6.179855 95.182426 37,975 299 522 -64
2019-09-13 08:12:36 GMT 6.164383 95.210503 38,000 299 522 -64
2019-09-13 08:12:23 GMT 6.149872 95.236847 38,000 299 523 -64
2019-09-13 08:12:12 GMT 6.137121 95.260033 37,975 299 523 0
2019-09-13 08:12:01 GMT 6.124329 95.283211 37,975 299 523 0
2019-09-13 08:11:51 GMT 6.112262 95.305069 38,000 299 523 -64
2019-09-13 08:11:40 GMT 6.099088 95.328888 37,975 299 523 -64
2019-09-13 08:11:27 GMT 6.084457 95.355461 38,000 299 523 0
2019-09-13 08:11:14 GMT 6.069397 95.382599 38,000 299 523 0
2019-09-13 08:11:02 GMT 6.055189 95.408356 37,975 300 523 -64
2019-09-13 08:10:49 GMT 6.039641 95.436386 37,975 299 524 -64
2019-09-13 08:10:37 GMT 6.025256 95.462433 37,975 299 524 0
2019-09-13 08:10:26 GMT 6.012594 95.485443 38,000 299 524 -64
2019-09-13 08:10:15 GMT 5.999863 95.508759 37,975 299 523 0
2019-09-13 08:10:03 GMT 5.985580 95.535294 37,975 299 524 0
2019-09-13 08:09:52 GMT 5.972792 95.559082 37,975 299 524 -64
2019-09-13 08:09:40 GMT 5.958966 95.584793 37,975 299 524 -64
2019-09-13 08:09:28 GMT 5.945526 95.609825 38,000 299 522 0
2019-09-13 08:09:15 GMT 5.930709 95.637360 38,000 299 522 0
2019-09-13 08:09:03 GMT 5.917007 95.662804 38,000 299 522 -64
2019-09-13 08:08:52 GMT 5.904500 95.685989 37,975 299 521 -64
2019-09-13 08:08:39 GMT 5.889679 95.713493 37,975 299 521 0
2019-09-13 08:08:35 GMT 5.884994 95.722176 38,000 299 520 0
2019-09-13 08:08:29 GMT 5.877548 95.736031 38,000 299 519 0
2019-09-13 08:08:19 GMT 5.865646 95.758095 38,000 299 519 0
2019-09-13 08:08:05 GMT 5.850778 95.785866 38,000 299 518 0
2019-09-13 08:08:01 GMT 5.845184 95.796265 37,975 299 518 64
2019-09-13 08:07:55 GMT 5.838721 95.808311 37,975 299 517 0
2019-09-13 08:07:51 GMT 5.833603 95.817818 38,000 299 517 0
2019-09-13 08:07:42 GMT 5.824265 95.835136 37,975 299 516 -64
2019-09-13 08:07:31 GMT 5.799198 95.881660 37,975 299 515 -64
2019-09-13 08:07:21 GMT 5.799198 95.881660 37,975 299 513 0
2019-09-13 08:07:08 GMT 5.785767 95.906639 38,000 299 513 -64
2019-09-13 08:06:58 GMT 5.773921 95.928589 37,950 299 511 128
2019-09-13 08:06:47 GMT 5.762192 95.950539 37,975 299 510 -64
2019-09-13 08:06:36 GMT 5.750272 95.972916 38,000 298 510 -64
2019-09-13 08:06:25 GMT 5.738068 95.995651 38,000 299 510 0
2019-09-13 08:06:15 GMT 5.726018 96.017906 38,000 299 510 0
2019-09-13 08:06:04 GMT 5.714101 96.039925 37,975 299 509 0
2019-09-13 08:05:54 GMT 5.702230 96.061943 37,975 299 508 64
2019-09-13 08:05:39 GMT 5.686020 96.092056 38,000 299 508 0
2019-09-13 08:05:28 GMT 5.673787 96.114700 38,000 299 509 -64
2019-09-13 08:05:18 GMT 5.662056 96.136337 38,000 299 511 -128
2019-09-13 08:05:10 GMT 5.648666 96.161232 37,975 299 512 -64
2019-09-13 08:05:00 GMT 5.641251 96.175064 38,000 299 512 -64
2019-09-13 08:04:54 GMT 5.635754 96.185303 38,000 299 512 0
2019-09-13 08:04:48 GMT 5.629003 96.197853 38,000 299 512 -64
2019-09-13 08:04:43 GMT 5.623260 96.208534 37,975 299 512 0
2019-09-13 08:04:38 GMT 5.617172 96.219795 38,000 299 512 -64
2019-09-13 08:04:33 GMT 5.611542 96.230270 37,975 299 511 -64
2019-09-13 08:04:27 GMT 5.604813 96.242798 37,975 299 511 -64
2019-09-13 08:04:20 GMT 5.597397 96.256622 37,975 299 511 -64
2019-09-13 08:04:17 GMT 5.592224 96.266258 38,000 299 511 -64
2019-09-13 08:04:09 GMT 5.585037 96.279617 38,000 299 512 -64
2019-09-13 08:03:57 GMT 5.570720 96.306198 37,975 299 512 0
2019-09-13 08:03:46 GMT 5.558942 96.327934 37,975 299 512 -64
2019-09-13 08:03:39 GMT 5.550705 96.343163 38,000 299 512 -64
2019-09-13 08:03:33 GMT 5.543060 96.357361 37,975 299 512 0
2019-09-13 08:03:21 GMT 5.530266 96.380928 38,000 299 511 -128
2019-09-13 08:03:12 GMT 5.516190 96.407028 37,975 299 511 -64
2019-09-13 08:02:58 GMT 5.504242 96.429146 38,000 299 510 -64
2019-09-13 08:02:46 GMT 5.491535 96.452667 37,975 299 510 0
2019-09-13 08:02:35 GMT 5.477554 96.478584 38,000 299 507 64
2019-09-13 08:02:24 GMT 5.465838 96.500305 38,000 299 506 64
2019-09-13 08:02:13 GMT 5.453827 96.522568 37,975 299 504 0
2019-09-13 08:02:04 GMT 5.444517 96.539848 37,975 299 503 0
2019-09-13 08:01:54 GMT 5.432877 96.561356 37,975 299 502 0
2019-09-13 08:01:47 GMT 5.424360 96.577118 38,000 299 502 0
2019-09-13 08:01:43 GMT 5.420822 96.583702 37,975 299 502 0
2019-09-13 08:01:32 GMT 5.409137 96.605339 37,975 299 500 0
2019-09-13 08:01:25 GMT 5.400758 96.620872 38,000 299 500 -64
2019-09-13 08:01:21 GMT 5.397308 96.627174 37,975 299 500 -64
2019-09-13 08:01:11 GMT 5.385406 96.649239 37,975 299 499 -64
2019-09-13 08:01:03 GMT 5.376617 96.665535 38,000 299 499 -64
2019-09-13 08:01:00 GMT 5.374083 96.670219 38,000 299 499 -64
2019-09-13 08:00:49 GMT 5.362061 96.692398 38,000 299 498 0
2019-09-13 08:00:40 GMT 5.350947 96.712929 37,975 299 498 0
2019-09-13 08:00:37 GMT 5.348190 96.718048 37,975 299 498 0
2019-09-13 08:00:24 GMT 5.334281 96.743851 37,975 299 498 0
2019-09-13 08:00:14 GMT 5.322739 96.765205 37,975 299 498 64
2019-09-13 08:00:03 GMT 5.310883 96.787224 37,975 299 499 -64
2019-09-13 07:59:52 GMT 5.299088 96.809013 37,975 299 500 -64
2019-09-13 07:59:41 GMT 5.287079 96.831261 38,000 299 500 0
2019-09-13 07:59:28 GMT 5.272751 96.857841 37,975 299 502 64
2019-09-13 07:59:18 GMT 5.260868 96.879761 37,975 299 502 0
2019-09-13 07:59:10 GMT 5.251419 96.897179 37,975 299 503 64
2019-09-13 07:59:07 GMT 5.249091 96.901497 37,975 299 503 0
2019-09-13 07:59:00 GMT 5.239883 96.918549 37,975 299 503 -64
2019-09-13 07:58:54 GMT 5.235031 96.927582 37,975 299 503 -64
2019-09-13 07:58:49 GMT 5.228235 96.940094 38,000 299 503 -64
2019-09-13 07:58:44 GMT 5.223221 96.949364 37,975 299 504 -64
2019-09-13 07:58:33 GMT 5.211756 96.970543 38,000 299 504 0
2019-09-13 07:58:22 GMT 5.199417 96.993355 38,000 299 504 0
2019-09-13 07:58:10 GMT 5.185364 97.019287 37,975 299 504 64
2019-09-13 07:57:59 GMT 5.173443 97.041290 38,000 299 504 -64
2019-09-13 07:57:48 GMT 5.161433 97.063545 37,975 299 505 64
2019-09-13 07:57:37 GMT 5.149521 97.085579 38,000 299 506 -64
2019-09-13 07:57:27 GMT 5.137552 97.107635 37,950 299 506 0
2019-09-13 07:57:16 GMT 5.125681 97.129562 38,000 299 508 64
2019-09-13 07:57:05 GMT 5.113484 97.151955 37,975 299 509 0
2019-09-13 07:56:55 GMT 5.101410 97.174164 38,000 299 511 -64
2019-09-13 07:56:44 GMT 5.088858 97.197327 37,975 299 513 0
2019-09-13 07:56:31 GMT 5.074722 97.223557 37,975 299 515 0
2019-09-13 07:56:20 GMT 5.062277 97.246475 38,000 299 517 -64
2019-09-13 07:56:10 GMT 5.050406 97.268448 37,975 299 519 -64
2019-09-13 07:55:59 GMT 5.038023 97.291321 37,975 299 520 -64
2019-09-13 07:55:51 GMT 5.027573 97.310608 37,975 299 521 -64
2019-09-13 07:55:48 GMT 5.025361 97.314667 38,000 299 521 -64
2019-09-13 07:55:38 GMT 5.013629 97.336357 37,975 299 522 64
2019-09-13 07:55:27 GMT 5.001200 97.359375 37,975 299 523 -64
2019-09-13 07:55:19 GMT 4.990448 97.379227 37,975 299 523 -128
2019-09-13 07:55:14 GMT 4.986557 97.386444 38,000 299 523 -64
2019-09-13 07:55:08 GMT 4.977645 97.402893 38,000 299 523 64
2019-09-13 07:55:03 GMT 4.974060 97.409485 38,000 299 523 128
2019-09-13 07:54:56 GMT 4.964539 97.426994 38,000 299 523 -64
2019-09-13 07:54:53 GMT 4.961517 97.432533 37,975 299 523 64
2019-09-13 07:54:45 GMT 4.951017 97.451950 37,975 299 523 0
2019-09-13 07:54:40 GMT 4.946827 97.459671 38,000 299 524 0
2019-09-13 07:54:35 GMT 4.939774 97.472702 38,000 299 524 -64
2019-09-13 07:54:28 GMT 4.932954 97.485336 38,000 299 525 64
2019-09-13 07:54:24 GMT 4.926819 97.496681 38,025 299 525 0
2019-09-13 07:54:16 GMT 4.919035 97.511002 37,975 299 525 -64
2019-09-13 07:54:05 GMT 4.906860 97.533501 37,975 299 527 -64
2019-09-13 07:53:51 GMT 4.888544 97.567162 37,975 299 526 64
2019-09-13 07:53:42 GMT 4.879699 97.583504 38,000 299 527 -64
2019-09-13 07:53:31 GMT 4.866760 97.607330 38,000 299 526 -64
2019-09-13 07:53:19 GMT 4.852466 97.633698 37,975 299 526 0
2019-09-13 07:53:16 GMT 4.848175 97.641594 38,000 299 526 0
2019-09-13 07:53:06 GMT 4.837463 97.661285 38,000 299 525 0
2019-09-13 07:52:53 GMT 4.823090 97.687820 37,975 299 525 64
2019-09-13 07:52:42 GMT 4.810196 97.711548 37,975 299 524 0
2019-09-13 07:52:32 GMT 4.798325 97.733330 37,975 299 526 64
2019-09-13 07:52:21 GMT 4.785645 97.756676 38,000 299 526 -64
2019-09-13 07:52:11 GMT 4.773285 97.779388 38,000 299 527 -64
2019-09-13 07:52:00 GMT 4.760696 97.802574 38,000 299 526 -64
2019-09-13 07:51:49 GMT 4.732826 97.853706 37,975 299 525 0
2019-09-13 07:51:36 GMT 4.732826 97.853706 38,000 299 525 0
2019-09-13 07:51:26 GMT 4.720184 97.876968 37,975 299 523 0
2019-09-13 07:51:23 GMT 4.717278 97.882309 37,975 299 523 -64
2019-09-13 07:51:13 GMT 4.705919 97.903244 37,975 299 523 -64
2019-09-13 07:51:02 GMT 4.692398 97.928169 37,975 299 523 -64
2019-09-13 07:50:53 GMT 4.682410 97.946762 38,000 299 523 -128
2019-09-13 07:50:48 GMT 4.676971 97.956757 38,000 299 523 0
2019-09-13 07:50:43 GMT 4.670975 97.967834 38,000 299 523 -64
2019-09-13 07:50:37 GMT 4.664115 97.980431 37,975 299 523 0
2019-09-13 07:50:30 GMT 4.654770 97.997673 38,000 299 523 0
2019-09-13 07:50:26 GMT 4.651872 98.003021 38,000 299 523 0
2019-09-13 07:50:22 GMT 4.645634 98.014526 37,975 299 523 64
2019-09-13 07:50:16 GMT 4.639755 98.025375 37,975 299 523 64
2019-09-13 07:50:10 GMT 4.633391 98.037117 37,975 299 524 64
2019-09-13 07:50:05 GMT 4.627106 98.048668 37,975 299 524 0
2019-09-13 07:50:00 GMT 4.621170 98.059540 37,975 299 527 -64
2019-09-13 07:49:54 GMT 4.614853 98.071091 37,975 299 525 -64
2019-09-13 07:49:42 GMT 4.600990 98.096596 38,000 299 527 -64
2019-09-13 07:49:31 GMT 4.587296 98.121735 38,000 299 528 -64
2019-09-13 07:49:16 GMT 4.568450 98.156303 38,000 299 528 -64
2019-09-13 07:49:03 GMT 4.555602 98.179893 38,000 299 527 0
2019-09-13 07:48:48 GMT 4.536621 98.214790 37,975 299 525 64
2019-09-13 07:48:43 GMT 4.531860 98.223549 37,975 299 525 64
2019-09-13 07:48:31 GMT 4.517895 98.249214 37,975 299 525 -64
2019-09-13 07:48:20 GMT 4.505447 98.272102 37,975 299 525 0
2019-09-13 07:48:10 GMT 4.487686 98.304596 37,975 299 527 0
2019-09-13 07:48:06 GMT 4.487686 98.304596 37,975 299 526 0
2019-09-13 07:48:00 GMT 4.481644 98.315765 37,975 299 527 -64
2019-09-13 07:47:57 GMT 4.478165 98.322189 37,975 299 527 0
2019-09-13 07:47:51 GMT 4.469788 98.337646 37,975 299 527 -64
2019-09-13 07:47:46 GMT 4.465851 98.344955 38,000 299 527 -64
2019-09-13 07:47:43 GMT 4.461985 98.352020 38,000 299 528 0
2019-09-13 07:47:40 GMT 4.456865 98.361496 37,975 299 528 -64
2019-09-13 07:47:35 GMT 4.453141 98.368362 38,000 299 528 -64
2019-09-13 07:47:31 GMT 4.448020 98.377831 38,000 299 528 0
2019-09-13 07:47:27 GMT 4.442047 98.388809 38,000 299 528 -64
2019-09-13 07:47:18 GMT 4.432251 98.406914 38,000 299 528 -64
2019-09-13 07:47:06 GMT 4.417282 98.434425 38,000 299 528 -128
2019-09-13 07:46:56 GMT 4.405334 98.456352 38,000 299 528 -64
2019-09-13 07:46:47 GMT 4.396454 98.472649 38,000 299 527 -64
2019-09-13 07:46:44 GMT 4.392471 98.479958 37,975 299 526 0
2019-09-13 07:46:39 GMT 4.385826 98.492149 38,000 299 526 0
2019-09-13 07:46:35 GMT 4.382102 98.499016 38,000 299 525 0
2019-09-13 07:46:32 GMT 4.378843 98.504982 38,000 299 525 64
2019-09-13 07:46:28 GMT 4.372978 98.515686 38,000 299 525 64
2019-09-13 07:46:25 GMT 4.369253 98.522499 38,000 299 524 -64
2019-09-13 07:46:21 GMT 4.366460 98.527618 38,000 299 524 64
2019-09-13 07:46:17 GMT 4.360408 98.538742 38,000 299 524 64
2019-09-13 07:46:14 GMT 4.358593 98.542152 37,975 299 524 64
2019-09-13 07:46:10 GMT 4.353790 98.550903 37,975 299 524 64
2019-09-13 07:46:06 GMT 4.345558 98.566071 37,975 299 524 64
2019-09-13 07:45:59 GMT 4.340438 98.575447 37,975 299 524 64
2019-09-13 07:45:53 GMT 4.333269 98.588654 37,975 299 524 0
2019-09-13 07:45:48 GMT 4.327332 98.599548 38,000 299 524 -64
2019-09-13 07:45:41 GMT 4.318372 98.615982 38,000 299 524 -64
2019-09-13 07:45:38 GMT 4.315579 98.621094 38,000 299 523 0
2019-09-13 07:45:33 GMT 4.309891 98.631485 38,000 299 523 0
2019-09-13 07:45:29 GMT 4.305725 98.639168 38,000 299 522 0
2019-09-13 07:45:26 GMT 4.302246 98.645538 37,975 299 522 64
2019-09-13 07:45:19 GMT 4.293559 98.661438 38,000 299 521 0
2019-09-13 07:45:15 GMT 4.289835 98.668213 38,000 299 521 64
2019-09-13 07:45:09 GMT 4.281083 98.684311 37,975 299 520 0
2019-09-13 07:45:04 GMT 4.277406 98.691086 37,975 299 519 0
2019-09-13 07:44:58 GMT 4.269424 98.705643 37,975 299 519 64
2019-09-13 07:44:53 GMT 4.264343 98.714951 37,975 299 518 0
2019-09-13 07:44:47 GMT 4.256644 98.729019 37,975 299 517 0
2019-09-13 07:44:42 GMT 4.251709 98.738045 37,975 299 516 0
2019-09-13 07:44:37 GMT 4.244493 98.751274 37,975 299 515 0
2019-09-13 07:44:32 GMT 4.239699 98.760078 37,975 299 515 0
2019-09-13 07:44:26 GMT 4.232712 98.772865 37,975 299 514 -64
2019-09-13 07:44:21 GMT 4.226897 98.783524 38,000 299 513 -64
2019-09-13 07:44:16 GMT 4.220169 98.795815 38,000 299 513 -64
2019-09-13 07:44:10 GMT 4.214493 98.806236 38,000 299 512 -128
2019-09-13 07:44:03 GMT 4.207345 98.819366 38,000 299 511 0
2019-09-13 07:43:58 GMT 4.201665 98.829742 38,000 299 510 64
2019-09-13 07:43:52 GMT 4.195038 98.841995 37,975 299 510 256
2019-09-13 07:43:47 GMT 4.189050 98.852989 37,950 299 509 448
2019-09-13 07:43:42 GMT 4.183502 98.863129 37,900 299 509 448
2019-09-13 07:43:36 GMT 4.176041 98.876816 37,850 299 509 320
2019-09-13 07:43:31 GMT 4.170522 98.886993 37,850 299 509 256
2019-09-13 07:43:25 GMT 4.164656 98.897743 37,800 299 508 320
2019-09-13 07:43:22 GMT 4.160606 98.905228 37,800 299 508 320
2019-09-13 07:43:19 GMT 4.157208 98.911430 37,775 299 508 384
2019-09-13 07:43:12 GMT 4.148410 98.927528 37,650 299 509 576
2019-09-13 07:43:04 GMT 4.139425 98.944153 37,650 299 510 576
2019-09-13 07:42:58 GMT 4.133469 98.955116 37,575 299 510 512
2019-09-13 07:42:53 GMT 4.127151 98.966751 37,550 299 510 640
2019-09-13 07:42:47 GMT 4.121828 98.976494 37,500 299 511 576
2019-09-13 07:42:40 GMT 4.112099 98.994347 37,450 299 510 256
2019-09-13 07:42:36 GMT 4.108701 99.000595 37,425 299 510 320
2019-09-13 07:42:29 GMT 4.100135 99.016319 37,375 299 510 448
2019-09-13 07:42:26 GMT 4.097202 99.021713 37,375 299 509 448
2019-09-13 07:42:17 GMT 4.086227 99.041794 37,275 299 509 576
2019-09-13 07:42:07 GMT 4.074345 99.063484 37,200 299 509 512
2019-09-13 07:42:03 GMT 4.071991 99.067863 37,175 299 508 640
2019-09-13 07:41:56 GMT 4.061962 99.086266 37,050 299 510 960
2019-09-13 07:41:45 GMT 4.050184 99.107811 36,725 299 511 768
2019-09-13 07:41:39 GMT 4.044388 99.118370 36,825 299 511 832
2019-09-13 07:41:34 GMT 4.038025 99.130013 36,775 299 511 768
2019-09-13 07:41:31 GMT 4.035660 99.134331 36,725 299 511 768
2019-09-13 07:41:25 GMT 4.027771 99.148682 36,650 299 511 768
2019-09-13 07:41:20 GMT 4.023239 99.157013 36,600 299 512 768
2019-09-13 07:41:13 GMT 4.014479 99.173019 36,500 299 512 704
2019-09-13 07:41:09 GMT 4.010056 99.181122 36,450 299 512 640
2019-09-13 07:41:02 GMT 4.000839 99.198021 36,375 299 512 640
2019-09-13 07:40:59 GMT 3.998558 99.202187 36,375 299 512 640
2019-09-13 07:40:51 GMT 3.988449 99.220695 36,250 299 512 768
2019-09-13 07:40:48 GMT 3.986160 99.224884 36,225 299 513 768
2019-09-13 07:40:40 GMT 3.975561 99.244286 35,725 299 515 1088
2019-09-13 07:40:36 GMT 3.973434 99.248207 36,075 299 513 832
2019-09-13 07:40:32 GMT 3.966716 99.260529 35,975 299 513 1024
2019-09-13 07:40:29 GMT 3.963271 99.266777 35,925 299 514 1088
2019-09-13 07:40:25 GMT 3.960571 99.271797 35,900 299 514 1152
2019-09-13 07:40:20 GMT 3.953842 99.284149 35,800 299 515 1088
2019-09-13 07:40:17 GMT 3.950097 99.291069 35,725 299 515 1024
2019-09-13 07:40:14 GMT 3.948349 99.294205 35,700 299 515 960
2019-09-13 07:40:07 GMT 3.936131 99.316643 35,575 299 515 960
2019-09-13 07:40:04 GMT 3.936131 99.316643 35,550 299 515 960
2019-09-13 07:39:57 GMT 3.926422 99.334473 35,400 299 516 1216
2019-09-13 07:39:53 GMT 3.923630 99.339493 35,350 299 516 1344
2019-09-13 07:39:49 GMT 3.918023 99.349792 35,250 299 517 1408
2019-09-13 07:39:45 GMT 3.914200 99.356720 35,175 299 518 1216
2019-09-13 07:39:42 GMT 3.910721 99.363007 35,125 299 518 1088
2019-09-13 07:39:38 GMT 3.905779 99.372047 35,050 299 519 960
2019-09-13 07:39:34 GMT 3.901124 99.380478 35,000 299 519 896
2019-09-13 07:39:31 GMT 3.898270 99.385773 34,950 299 519 960
2019-09-13 07:39:25 GMT 3.891674 99.397812 34,850 299 519 1024
2019-09-13 07:39:20 GMT 3.885818 99.408577 34,775 299 520 1216
2019-09-13 07:39:13 GMT 3.873184 99.431854 34,575 299 521 1216
2019-09-13 07:39:06 GMT 3.867979 99.441422 34,450 299 522 1344
2019-09-13 07:39:02 GMT 3.863370 99.449898 34,375 299 522 1344
2019-09-13 07:38:58 GMT 3.860458 99.455223 34,325 299 522 1344
2019-09-13 07:38:55 GMT 3.855922 99.463493 34,250 299 523 1344
2019-09-13 07:38:51 GMT 3.850382 99.473717 34,150 299 523 1344
2019-09-13 07:38:47 GMT 3.847356 99.479263 34,075 299 524 1344
2019-09-13 07:38:44 GMT 3.843399 99.486504 34,025 299 524 1344
2019-09-13 07:38:40 GMT 3.837891 99.496468 33,925 299 525 1280
2019-09-13 07:38:34 GMT 3.830658 99.509689 33,775 299 525 1280
2019-09-13 07:38:29 GMT 3.824918 99.520172 33,650 299 526 1216
2019-09-13 07:38:25 GMT 3.822235 99.525101 33,650 299 526 1216
2019-09-13 07:38:17 GMT 3.812851 99.542183 33,500 299 526 1152
2019-09-13 07:38:14 GMT 3.808823 99.549446 33,425 299 526 1088
2019-09-13 07:38:07 GMT 3.800171 99.565231 33,325 299 526 1088
2019-09-13 07:38:03 GMT 3.796188 99.572540 33,250 299 527 1088
2019-09-13 07:37:56 GMT 3.787164 99.588982 33,150 299 527 1024
2019-09-13 07:37:52 GMT 3.783207 99.596275 33,075 299 527 960
2019-09-13 07:37:45 GMT 3.774083 99.612946 32,950 299 526 896
2019-09-13 07:37:42 GMT 3.771243 99.618103 32,925 299 526 896
2019-09-13 07:37:34 GMT 3.760723 99.637283 32,800 299 526 896
2019-09-13 07:37:30 GMT 3.757929 99.642395 32,750 299 525 896
2019-09-13 07:37:24 GMT 3.748947 99.658844 32,650 299 524 1024
2019-09-13 07:37:20 GMT 3.745314 99.665459 32,600 299 524 1024
2019-09-13 07:37:13 GMT 3.735957 99.682510 32,500 299 525 1088
2019-09-13 07:37:09 GMT 3.732330 99.689102 32,400 299 524 1088
2019-09-13 07:37:02 GMT 3.723527 99.705093 32,250 299 524 1216
2019-09-13 07:36:57 GMT 3.719009 99.713402 32,175 299 524 1216
2019-09-13 07:36:51 GMT 3.710958 99.728111 32,050 299 524 1216
2019-09-13 07:36:46 GMT 3.706256 99.736633 31,975 299 525 1152
2019-09-13 07:36:43 GMT 3.701136 99.746056 31,900 299 525 1216
2019-09-13 07:36:39 GMT 3.696294 99.755005 31,825 299 525 1152
2019-09-13 07:36:33 GMT 3.691173 99.764435 31,750 299 525 1088
2019-09-13 07:36:29 GMT 3.685122 99.775513 31,650 299 525 1024
2019-09-13 07:36:21 GMT 3.675299 99.793411 31,525 299 524 768
2019-09-13 07:36:18 GMT 3.673096 99.797478 31,450 299 523 640
2019-09-13 07:36:12 GMT 3.666454 99.809608 31,450 299 523 640
2019-09-13 07:36:08 GMT 3.660049 99.821266 31,400 299 521 704
2019-09-13 07:36:01 GMT 3.653320 99.833557 31,325 299 521 960
2019-09-13 07:35:57 GMT 3.647647 99.843941 31,225 299 521 1088
2019-09-13 07:35:49 GMT 3.638150 99.861275 31,100 299 520 960
2019-09-13 07:35:45 GMT 3.634140 99.868652 31,050 299 520 960
2019-09-13 07:35:38 GMT 3.625809 99.883881 30,950 299 519 960
2019-09-13 07:35:34 GMT 3.621185 99.892303 30,800 299 519 960
2019-09-13 07:35:27 GMT 3.613245 99.906876 30,775 299 518 896
2019-09-13 07:35:24 GMT 3.609192 99.914230 30,275 299 511 1216
2019-09-13 07:35:17 GMT 3.602509 99.926430 30,650 299 517 960
2019-09-13 07:35:13 GMT 3.596970 99.936485 30,575 299 516 1024
2019-09-13 07:35:04 GMT 3.586059 99.956406 30,425 299 516 896
2019-09-13 07:35:01 GMT 3.583191 99.961670 30,400 299 516 896
2019-09-13 07:34:55 GMT 3.576655 99.973595 30,325 299 515 832
2019-09-13 07:34:51 GMT 3.571814 99.982361 30,250 299 513 960
2019-09-13 07:34:44 GMT 3.565063 99.994675 30,175 299 513 1152
2019-09-13 07:34:40 GMT 3.559244 100.005280 30,075 299 513 1024
2019-09-13 07:34:33 GMT 3.546489 100.028625 29,950 299 513 960
2019-09-13 07:34:29 GMT 3.546489 100.028625 29,900 299 512 1024
2019-09-13 07:34:20 GMT 3.536591 100.046715 29,750 299 511 1280
2019-09-13 07:34:17 GMT 3.533780 100.051926 29,700 299 511 1280
2019-09-13 07:34:11 GMT 3.527403 100.063522 29,575 299 511 1152
2019-09-13 07:34:06 GMT 3.522189 100.073090 29,500 299 511 1088
2019-09-13 07:34:01 GMT 3.515159 100.085968 29,400 299 510 960
2019-09-13 07:33:56 GMT 3.509946 100.095490 29,325 299 509 896
2019-09-13 07:33:50 GMT 3.503540 100.107330 29,225 299 508 960
2019-09-13 07:33:46 GMT 3.497452 100.118500 29,175 299 508 1024
2019-09-13 07:33:39 GMT 3.490859 100.130676 29,075 299 507 1024
2019-09-13 07:33:35 GMT 3.485550 100.140335 29,000 299 506 1024
2019-09-13 07:33:28 GMT 3.477592 100.154968 28,900 299 506 960
2019-09-13 07:33:24 GMT 3.473123 100.163208 28,825 299 505 960
2019-09-13 07:33:18 GMT 3.466652 100.175095 28,750 299 504 1024
2019-09-13 07:33:13 GMT 3.461066 100.185371 28,650 299 503 1024
2019-09-13 07:33:06 GMT 3.454409 100.197632 28,550 299 502 1024
2019-09-13 07:33:01 GMT 3.447830 100.209694 28,475 299 501 1024
2019-09-13 07:32:55 GMT 3.442291 100.219894 28,400 299 501 960
2019-09-13 07:32:51 GMT 3.429736 100.242859 27,825 300 494 1088
2019-09-13 07:32:44 GMT 3.429736 100.242859 28,225 299 498 1024
2019-09-13 07:32:39 GMT 3.423431 100.254387 28,025 299 498 1088
2019-09-13 07:32:34 GMT 3.418377 100.263458 28,050 299 497 1024
2019-09-13 07:32:28 GMT 3.412326 100.274300 27,850 300 495 1024
2019-09-13 07:32:23 GMT 3.406128 100.285301 27,875 300 495 1088
2019-09-13 07:32:17 GMT 3.398267 100.299065 27,750 300 494 1088
2019-09-13 07:32:12 GMT 3.393891 100.306595 27,700 300 494 1024
2019-09-13 07:32:06 GMT 3.387467 100.317680 27,475 301 491 1152
2019-09-13 07:32:01 GMT 3.381508 100.327904 27,500 301 492 1088
2019-09-13 07:31:57 GMT 3.375037 100.338943 27,100 301 491 1152
2019-09-13 07:31:50 GMT 3.368148 100.350731 27,300 301 490 1152
2019-09-13 07:31:45 GMT 3.361862 100.361504 27,200 301 490 1152
2019-09-13 07:31:42 GMT 3.358429 100.367371 27,150 301 489 1152
2019-09-13 07:31:35 GMT 3.350085 100.381653 27,025 301 489 1152
2019-09-13 07:31:29 GMT 3.344055 100.391998 26,925 301 488 1216
2019-09-13 07:31:24 GMT 3.337646 100.402885 26,800 301 487 1280
2019-09-13 07:31:20 GMT 3.333801 100.409546 26,750 301 487 1280
2019-09-13 07:31:17 GMT 3.331055 100.414200 26,700 301 487 1344
2019-09-13 07:31:13 GMT 3.325040 100.424507 26,425 301 485 1280
2019-09-13 07:31:07 GMT 3.319016 100.434822 26,475 301 485 1344
2019-09-13 07:31:01 GMT 3.312424 100.446091 26,400 301 485 1216
2019-09-13 07:30:58 GMT 3.309494 100.451164 26,200 301 483 1152
2019-09-13 07:30:55 GMT 3.305649 100.457726 26,200 301 483 1152
2019-09-13 07:30:51 GMT 3.300888 100.465874 26,200 301 483 1152
2019-09-13 07:30:48 GMT 3.297388 100.471863 26,125 301 483 1152
2019-09-13 07:30:45 GMT 3.294571 100.476677 26,075 301 482 1216
2019-09-13 07:30:41 GMT 3.288940 100.486359 25,975 301 482 1216
2019-09-13 07:30:38 GMT 3.285553 100.492126 25,925 301 481 1216
2019-09-13 07:30:34 GMT 3.282538 100.497292 25,875 301 481 1216
2019-09-13 07:30:30 GMT 3.276486 100.507668 25,775 301 479 1152
2019-09-13 07:30:26 GMT 3.273239 100.513268 25,725 301 479 1088
2019-09-13 07:30:23 GMT 3.269736 100.519218 25,675 301 479 1088
2019-09-13 07:30:19 GMT 3.263731 100.529541 25,600 301 477 1088
2019-09-13 07:30:16 GMT 3.261612 100.533188 25,550 301 477 1152
2019-09-13 07:30:12 GMT 3.257679 100.539864 25,500 301 477 1216
2019-09-13 07:30:06 GMT 3.249802 100.553391 25,350 301 476 1344
2019-09-13 07:30:01 GMT 3.245361 100.560982 25,275 301 476 1344
2019-09-13 07:29:57 GMT 3.239710 100.570694 25,175 301 474 1344
2019-09-13 07:29:54 GMT 3.237056 100.575241 25,125 301 474 1344
2019-09-13 07:29:46 GMT 3.227417 100.591751 24,925 301 474 1280
2019-09-13 07:29:40 GMT 3.221787 100.601425 24,850 301 473 1216
2019-09-13 07:29:35 GMT 3.215057 100.612976 24,725 301 471 1152
2019-09-13 07:29:31 GMT 3.210663 100.620522 24,650 301 471 1152
2019-09-13 07:29:28 GMT 3.208008 100.625038 24,625 301 470 1152
2019-09-13 07:29:24 GMT 3.203725 100.632401 24,550 301 469 832
2019-09-13 07:29:18 GMT 3.197627 100.642860 24,500 301 467 448
2019-09-13 07:29:11 GMT 3.190411 100.655174 24,450 301 464 640
2019-09-13 07:29:07 GMT 3.185663 100.663322 24,400 301 462 960
2019-09-13 07:29:02 GMT 3.179425 100.674026 24,275 301 460 1216
2019-09-13 07:28:56 GMT 3.173838 100.683586 24,175 301 459 1280
2019-09-13 07:28:50 GMT 3.166763 100.695709 24,025 301 456 1216
2019-09-13 07:28:44 GMT 3.161728 100.704269 24,000 301 457 1152
2019-09-13 07:28:39 GMT 3.156056 100.713943 23,875 301 454 1216
2019-09-13 07:28:33 GMT 3.150009 100.724289 23,775 301 453 1344
2019-09-13 07:28:28 GMT 3.144699 100.733360 23,650 301 452 1408
2019-09-13 07:28:23 GMT 3.138748 100.743462 23,550 301 452 1408
2019-09-13 07:28:17 GMT 3.133072 100.753197 23,425 301 451 1408
2019-09-13 07:28:12 GMT 3.127167 100.763298 23,325 301 449 1408
2019-09-13 07:28:08 GMT 3.121793 100.772476 23,175 301 449 1280
2019-09-13 07:28:01 GMT 3.115631 100.783035 23,050 301 447 1344
2019-09-13 07:27:57 GMT 3.110184 100.792343 22,950 301 447 1472
2019-09-13 07:27:52 GMT 3.106570 100.798615 22,850 301 446 1600
2019-09-13 07:27:46 GMT 3.099197 100.811295 22,700 301 445 1472
2019-09-13 07:27:39 GMT 3.093109 100.821579 22,500 301 444 1536
2019-09-13 07:27:35 GMT 3.087296 100.831543 22,425 301 443 1536
2019-09-13 07:27:30 GMT 3.083062 100.838768 22,325 301 443 1472
2019-09-13 07:27:24 GMT 3.076355 100.850304 22,200 301 441 1344
2019-09-13 07:27:17 GMT 3.070679 100.859985 22,075 301 440 1280
2019-09-13 07:27:13 GMT 3.065092 100.869453 21,975 301 438 1408
2019-09-13 07:27:09 GMT 3.058342 100.881012 21,800 301 437 1600
2019-09-13 07:27:02 GMT 3.053925 100.888519 21,700 301 436 1664
2019-09-13 07:26:58 GMT 3.049358 100.896355 21,600 301 435 1536
2019-09-13 07:26:54 GMT 3.046285 100.901566 21,525 301 435 1536
2019-09-13 07:26:51 GMT 3.043027 100.907150 21,450 301 434 1600
2019-09-13 07:26:44 GMT 3.036556 100.918236 21,100 301 432 1600
2019-09-13 07:26:39 GMT 3.031631 100.926743 21,150 301 433 1600
2019-09-13 07:26:36 GMT 3.027603 100.933678 21,050 301 432 1600
2019-09-13 07:26:33 GMT 3.025895 100.936607 21,000 301 432 1600
2019-09-13 07:26:28 GMT 3.019425 100.947639 20,875 301 431 1472
2019-09-13 07:26:25 GMT 3.015930 100.953697 20,775 301 430 1408
2019-09-13 07:26:18 GMT 3.010117 100.963654 20,650 301 429 1472
2019-09-13 07:26:14 GMT 3.005081 100.972221 20,525 301 427 1664
2019-09-13 07:26:06 GMT 2.998672 100.983116 20,375 301 426 1600
2019-09-13 07:26:03 GMT 2.994193 100.990776 20,250 301 425 1472
2019-09-13 07:25:57 GMT 2.988002 101.001289 20,125 301 423 1344
2019-09-13 07:25:52 GMT 2.983566 101.008904 19,975 301 421 1344
2019-09-13 07:25:45 GMT 2.977020 101.019981 19,900 301 420 1536
2019-09-13 07:25:41 GMT 2.972221 101.028191 19,750 301 419 1920
2019-09-13 07:25:35 GMT 2.966629 101.037766 19,600 301 419 1792
2019-09-13 07:25:30 GMT 2.961607 101.046280 19,450 301 417 1408
2019-09-13 07:25:24 GMT 2.955688 101.056480 19,325 301 416 1472
2019-09-13 07:25:19 GMT 2.951614 101.063416 19,225 301 414 1664
2019-09-13 07:25:13 GMT 2.945023 101.074684 19,025 301 414 1856
2019-09-13 07:25:08 GMT 2.940948 101.081665 18,775 301 412 1792
2019-09-13 07:25:02 GMT 2.934513 101.092690 18,650 301 411 1792
2019-09-13 07:24:56 GMT 2.930008 101.100471 18,600 301 411 1728
2019-09-13 07:24:51 GMT 2.924365 101.110161 18,425 301 409 1728
2019-09-13 07:24:47 GMT 2.919891 101.117836 18,300 301 409 1792
2019-09-13 07:24:40 GMT 2.909454 101.135803 17,950 301 407 2112
2019-09-13 07:24:36 GMT 2.909454 101.135803 17,950 301 407 2112
2019-09-13 07:24:28 GMT 2.903277 101.146385 17,750 301 406 1856
2019-09-13 07:24:25 GMT 2.899200 101.153404 17,650 301 405 1728
2019-09-13 07:24:17 GMT 2.888672 101.171463 17,450 301 402 1664
2019-09-13 07:24:14 GMT 2.888672 101.171463 17,350 301 401 1856
2019-09-13 07:24:06 GMT 2.882747 101.181572 17,175 301 400 1984
2019-09-13 07:24:02 GMT 2.877228 101.191017 17,000 301 399 1856
2019-09-13 07:23:55 GMT 2.871947 101.200089 16,825 301 397 1792
2019-09-13 07:23:51 GMT 2.867897 101.207092 16,250 300 396 1920
2019-09-13 07:23:46 GMT 2.862916 101.215622 16,550 300 394 2048
2019-09-13 07:23:41 GMT 2.858276 101.223701 16,375 301 393 1984
2019-09-13 07:23:35 GMT 2.852488 101.233612 16,000 301 389 1792
2019-09-13 07:23:30 GMT 2.848299 101.240814 16,050 301 390 1792
2019-09-13 07:23:24 GMT 2.842666 101.250473 15,875 301 387 1792
2019-09-13 07:23:19 GMT 2.838593 101.257446 15,775 301 386 1664
2019-09-13 07:23:12 GMT 2.831955 101.268852 15,675 301 384 1408
2019-09-13 07:23:07 GMT 2.828840 101.274200 15,400 301 373 1088
2019-09-13 07:23:02 GMT 2.823067 101.284142 15,375 300 374 1024
2019-09-13 07:22:57 GMT 2.819064 101.291054 15,375 300 370 1024
2019-09-13 07:22:51 GMT 2.814011 101.299767 15,275 300 366 1024
2019-09-13 07:22:46 GMT 2.810120 101.306465 15,200 301 363 1024
2019-09-13 07:22:43 GMT 2.808171 101.309807 15,175 301 360 1024
2019-09-13 07:22:39 GMT 2.804535 101.315964 15,100 301 357 1024
2019-09-13 07:22:33 GMT 2.799545 101.324486 15,000 301 351 1024
2019-09-13 07:22:28 GMT 2.795695 101.331070 14,925 301 348 960
2019-09-13 07:22:23 GMT 2.791133 101.338837 14,850 301 344 896
2019-09-13 07:22:17 GMT 2.786911 101.346085 14,775 301 338 832
2019-09-13 07:22:12 GMT 2.782654 101.353348 14,700 301 332 832
2019-09-13 07:22:06 GMT 2.778305 101.360748 14,625 301 327 896
2019-09-13 07:22:01 GMT 2.774281 101.367630 14,550 301 323 896
2019-09-13 07:21:57 GMT 2.770231 101.374542 14,475 301 317 896
2019-09-13 07:21:52 GMT 2.767227 101.379738 14,400 301 313 896
2019-09-13 07:21:46 GMT 2.762283 101.388168 14,300 300 306 1600
2019-09-13 07:21:41 GMT 2.758896 101.394081 13,350 300 302 2688
2019-09-13 07:21:35 GMT 2.754589 101.401489 13,900 300 303 2496
2019-09-13 07:21:30 GMT 2.751434 101.406975 13,725 300 303 2560
2019-09-13 07:21:24 GMT 2.746811 101.414978 13,450 300 302 2752
2019-09-13 07:21:18 GMT 2.743744 101.420334 13,025 301 302 2816
2019-09-13 07:21:13 GMT 2.739134 101.428200 12,975 301 303 2624
2019-09-13 07:21:07 GMT 2.735779 101.433884 12,800 301 302 2432
2019-09-13 07:21:02 GMT 2.731293 101.441612 12,550 301 301 2368
2019-09-13 07:20:57 GMT 2.728226 101.446915 12,400 300 300 2304
2019-09-13 07:20:51 GMT 2.723602 101.454880 12,150 300 298 2368
2019-09-13 07:20:47 GMT 2.720792 101.459785 11,850 301 297 2432
2019-09-13 07:20:40 GMT 2.716370 101.467361 11,750 301 297 2496
2019-09-13 07:20:35 GMT 2.712982 101.473167 11,550 301 295 2624
2019-09-13 07:20:28 GMT 2.708735 101.480377 11,300 301 294 2752
2019-09-13 07:20:24 GMT 2.705200 101.486343 11,075 301 294 2688
2019-09-13 07:20:17 GMT 2.700775 101.494019 10,850 299 294 2688
2019-09-13 07:20:14 GMT 2.698214 101.498848 10,625 297 292 2560
2019-09-13 07:20:06 GMT 2.694397 101.506615 10,375 295 293 2496
2019-09-13 07:20:03 GMT 2.692017 101.511948 10,225 294 291 2496
2019-09-13 07:19:55 GMT 2.688531 101.520256 9,950 292 290 2624
2019-09-13 07:19:52 GMT 2.686437 101.525795 9,750 291 289 2688
2019-09-13 07:19:45 GMT 2.683411 101.534126 9,475 290 289 2624
2019-09-13 07:19:40 GMT 2.681671 101.539040 9,325 290 289 2624
2019-09-13 07:19:35 GMT 2.678650 101.547279 9,025 291 287 2688
2019-09-13 07:19:30 GMT 2.676270 101.553802 8,825 291 286 2624
2019-09-13 07:19:24 GMT 2.673615 101.561012 8,575 291 285 2496
2019-09-13 07:19:19 GMT 2.671679 101.566330 8,425 290 284 2560
2019-09-13 07:19:13 GMT 2.668700 101.574478 8,125 291 283 2816
2019-09-13 07:19:07 GMT 2.666473 101.580475 7,925 291 282 2944
2019-09-13 07:19:02 GMT 2.663773 101.587830 7,650 291 281 2880
2019-09-13 07:18:57 GMT 2.661804 101.593231 7,425 291 281 3200
2019-09-13 07:18:49 GMT 2.657913 101.603752 6,950 291 282 3776
2019-09-13 07:18:46 GMT 2.656815 101.606682 6,825 291 283 3904
2019-09-13 07:18:39 GMT 2.653431 101.615677 6,350 291 287 4032
2019-09-13 07:18:30 GMT 2.648804 101.627815 5,825 291 288 2368
2019-09-13 07:18:27 GMT 2.648077 101.629692 5,775 291 288 1984
2019-09-13 07:18:24 GMT 2.646402 101.634140 5,675 291 284 1536
2019-09-13 07:18:17 GMT 2.643190 101.642433 5,525 292 278 2240
2019-09-13 07:18:07 GMT 2.638412 101.654961 5,025 290 273 2880
2019-09-13 07:17:55 GMT 2.634430 101.667946 4,550 283 270 2816
2019-09-13 07:17:46 GMT 2.632736 101.681030 3,725 259 257 1536
2019-09-13 07:17:40 GMT 2.632919 101.688339 3,725 264 261 1984
2019-09-13 07:17:35 GMT 2.633789 101.694572 3,725 259 257 1536
2019-09-13 07:17:30 GMT 2.635089 101.699966 3,625 254 251 1088
2019-09-13 07:17:24 GMT 2.637543 101.706772 3,525 247 243 1152
2019-09-13 07:17:19 GMT 2.639698 101.711334 3,425 240 235 960
2019-09-13 07:17:13 GMT 2.643190 101.716827 3,350 234 227 768
2019-09-13 07:17:02 GMT 2.651184 101.725388 3,175 220 212 1152
2019-09-13 07:16:51 GMT 2.659698 101.730934 2,975 204 199 1280
2019-09-13 07:16:40 GMT 2.668933 101.734062 2,675 191 194 2304
2019-09-13 07:16:29 GMT 2.678988 101.734726 2,275 174 194 2496

Making use of Plane Finder data

You are free to use the raw flight data, aircraft information and images provided in this report for your own purposes provided the data is correctly attributed to Plane Finder. We ask that you please credit Plane Finder and link to planefinder.net in close proximity to the content.

Optionally one of the following logos (no smaller then 150x24px) can be used and must link to planefinder.net

Embedding the Plane Finder map

You are welcome to embed the Plane Finder playback map on your website to offer visitors a more interactive experience. We suggest using the following HTML code:

<iframe src="//planefinder.net/data/report/SV829-HZ-AR12-7700-squawk-2019-09-13/map" width="800" height="600" seamless="seamless"></iframe>

Where our data comes from

Plane Finder has a global network of data feeds and antenna radars that receive data broadcast directly from aircraft. The primary technologies used are ADS-B and MLAT. We also show feeds from the FAA and a FLARM glider feed.

Click here to find out more about the Plane Finder network.

How we collect our data